Observation data for Throckmorton on 02/12/2018      Previous  Date  Next       Current Mesonet Observations  Soil Data  Daily Summary Page  Observations in Plain Language
KTH1 120600Z 26002KT M04/M07 A3032 RMK A01 T10351066  RH  079%=      5-min Rain = 0
KTH1 120601Z 26002KT M03/M06 A3032 RMK A01 T10341063  RH  080%=      5-min Rain = 0
KTH1 120602Z 27002KT M03/M06 A3032 RMK A01 T10331061  RH  081%=      5-min Rain = 0
KTH1 120603Z 27002KT M03/M06 A3032 RMK A01 T10331060  RH  081%=      5-min Rain = 0
KTH1 120604Z 27002KT M03/M06 A3032 RMK A01 T10331060  RH  081%=      5-min Rain = 0
KTH1 120605Z 28002KT M03/M06 A3032 RMK A01 T10331060  RH  081%=      5-min Rain = 0
KTH1 120606Z 29001KT M03/M06 A3032 RMK A01 T10331062  RH  080%=      5-min Rain = 0
KTH1 120607Z 29001KT M03/M06 A3032 RMK A01 T10321063  RH  079%=      5-min Rain = 0
KTH1 120608Z 31001KT M03/M07 A3032 RMK A01 T10331065  RH  079%=      5-min Rain = 0
KTH1 120609Z 30000KT M03/M07 A3032 RMK A01 T10341067  RH  078%=      5-min Rain = 0
KTH1 120610Z 31001KT M04/M07 A3032 RMK A01 T10351069  RH  077%=      5-min Rain = 0
KTH1 120611Z 33001KT M04/M07 A3032 RMK A01 T10351068  RH  078%=      5-min Rain = 0
KTH1 120612Z 32001KT M04/M07 A3032 RMK A01 T10351067  RH  079%=      5-min Rain = 0
KTH1 120613Z 31001KT M04/M07 A3032 RMK A01 T10361067  RH  079%=      5-min Rain = 0
KTH1 120614Z 30001KT M04/M07 A3032 RMK A01 T10361066  RH  079%=      5-min Rain = 0
KTH1 120615Z 31001KT M04/M07 A3032 RMK A01 T10361067  RH  079%=      5-min Rain = 0
KTH1 120616Z 31001KT M04/M07 A3032 RMK A01 T10371068  RH  079%=      5-min Rain = 0
KTH1 120617Z 33001KT M04/M07 A3032 RMK A01 T10371068  RH  079%=      5-min Rain = 0
KTH1 120618Z 32001KT M04/M07 A3032 RMK A01 T10381066  RH  080%=      5-min Rain = 0
KTH1 120619Z 31001KT M04/M07 A3032 RMK A01 T10381065  RH  082%=      5-min Rain = 0
KTH1 120620Z 32001KT M04/M06 A3032 RMK A01 T10381064  RH  082%=      5-min Rain = 0
KTH1 120621Z 30001KT M04/M06 A3032 RMK A01 T10381064  RH  082%=      5-min Rain = 0
KTH1 120622Z 30001KT M04/M06 A3032 RMK A01 T10371063  RH  083%=      5-min Rain = 0
KTH1 120623Z 29002KT M04/M06 A3032 RMK A01 T10371062  RH  083%=      5-min Rain = 0
KTH1 120624Z 30001KT M04/M06 A3032 RMK A01 T10371062  RH  083%=      5-min Rain = 0
KTH1 120625Z 29001KT M04/M06 A3032 RMK A01 T10371062  RH  082%=      5-min Rain = 0
KTH1 120626Z 30001KT M04/M06 A3032 RMK A01 T10371063  RH  082%=      5-min Rain = 0
KTH1 120627Z 27001KT M04/M06 A3032 RMK A01 T10371064  RH  081%=      5-min Rain = 0
KTH1 120628Z 31001KT M04/M07 A3032 RMK A01 T10371066  RH  081%=      5-min Rain = 0
KTH1 120629Z 30000KT M04/M07 A3032 RMK A01 T10381067  RH  080%=      5-min Rain = 0
KTH1 120630Z 29000KT M04/M07 A3032 RMK A01 T10381069  RH  079%=      5-min Rain = 0
KTH1 120631Z 00000KT M04/M07 A3032 RMK A01 T10391070  RH  079%=      5-min Rain = 0
KTH1 120632Z 00000KT M04/M07 A3032 RMK A01 T10401072  RH  078%=      5-min Rain = 0
KTH1 120633Z 29000KT M04/M07 A3032 RMK A01 T10401073  RH  078%=      5-min Rain = 0
KTH1 120634Z 29001KT M04/M08 A3032 RMK A01 T10411075  RH  077%=      5-min Rain = 0
KTH1 120635Z 30001KT M04/M08 A3032 RMK A01 T10421076  RH  077%=      5-min Rain = 0
KTH1 120636Z 30001KT M04/M08 A3032 RMK A01 T10431077  RH  077%=      5-min Rain = 0
KTH1 120637Z 29002KT M04/M08 A3032 RMK A01 T10431075  RH  078%=      5-min Rain = 0
KTH1 120638Z 29002KT M04/M07 A3032 RMK A01 T10431073  RH  080%=      5-min Rain = 0
KTH1 120639Z 29002KT M04/M07 A3032 RMK A01 T10421070  RH  081%=      5-min Rain = 0
KTH1 120640Z 29002KT M04/M07 A3032 RMK A01 T10421069  RH  081%=      5-min Rain = 0
KTH1 120641Z 28002KT M04/M07 A3032 RMK A01 T10411068  RH  081%=      5-min Rain = 0
KTH1 120642Z 27001KT M04/M07 A3032 RMK A01 T10411067  RH  082%=      5-min Rain = 0
KTH1 120643Z 28001KT M04/M07 A3032 RMK A01 T10401067  RH  082%=      5-min Rain = 0
KTH1 120644Z 27001KT M04/M07 A3032 RMK A01 T10401068  RH  081%=      5-min Rain = 0
KTH1 120645Z 26002KT M04/M07 A3033 RMK A01 T10391068  RH  080%=      5-min Rain = 0
KTH1 120646Z 28001KT M04/M07 A3033 RMK A01 T10391069  RH  079%=      5-min Rain = 0
KTH1 120647Z 29001KT M04/M07 A3033 RMK A01 T10391071  RH  079%=      5-min Rain = 0
KTH1 120648Z 29001KT M04/M07 A3033 RMK A01 T10391071  RH  078%=      5-min Rain = 0
KTH1 120649Z 28001KT M04/M07 A3033 RMK A01 T10391072  RH  077%=      5-min Rain = 0
KTH1 120650Z 29001KT M04/M07 A3033 RMK A01 T10391073  RH  077%=      5-min Rain = 0
KTH1 120651Z 30001KT M04/M07 A3033 RMK A01 T10391072  RH  078%=      5-min Rain = 0
KTH1 120652Z 31001KT M04/M07 A3033 RMK A01 T10391072  RH  078%=      5-min Rain = 0
KTH1 120653Z 30001KT M04/M07 A3032 RMK A01 T10401072  RH  078%=      5-min Rain = 0
KTH1 120654Z 31001KT M04/M07 A3032 RMK A01 T10401071  RH  079%=      5-min Rain = 0
KTH1 120655Z 30001KT M04/M07 A3032 RMK A01 T10401069  RH  080%=      5-min Rain = 0
KTH1 120656Z 31001KT M04/M07 A3032 RMK A01 T10401068  RH  081%=      5-min Rain = 0
KTH1 120657Z 30001KT M04/M07 A3032 RMK A01 T10401068  RH  081%=      5-min Rain = 0
KTH1 120658Z 29001KT M04/M07 A3032 RMK A01 T10401069  RH  080%=      5-min Rain = 0
KTH1 120659Z 27001KT M04/M07 A3033 RMK A01 T10401070  RH  079%=      5-min Rain = 0
KTH1 120700Z 27001KT M04/M07 A3033 RMK A01 T10411073  RH  078%=      5-min Rain = 0
KTH1 120701Z 27000KT M04/M08 A3033 RMK A01 T10421075  RH  078%=      5-min Rain = 0
KTH1 120702Z 27000KT M04/M08 A3033 RMK A01 T10431076  RH  078%=      5-min Rain = 0
KTH1 120703Z 28001KT M04/M08 A3033 RMK A01 T10431077  RH  077%=      5-min Rain = 0
KTH1 120704Z 28001KT M04/M08 A3033 RMK A01 T10441079  RH  077%=      5-min Rain = 0
KTH1 120705Z 31001KT M05/M08 A3033 RMK A01 T10451080  RH  077%=      5-min Rain = 0
KTH1 120706Z 29001KT M05/M08 A3033 RMK A01 T10451080  RH  077%=      5-min Rain = 0
KTH1 120707Z 29001KT M05/M08 A3033 RMK A01 T10451079  RH  077%=      5-min Rain = 0
KTH1 120708Z 29001KT M05/M08 A3033 RMK A01 T10451078  RH  078%=      5-min Rain = 0
KTH1 120709Z 28002KT M04/M08 A3033 RMK A01 T10441076  RH  079%=      5-min Rain = 0
KTH1 120710Z 27002KT M04/M07 A3033 RMK A01 T10441074  RH  080%=      5-min Rain = 0
KTH1 120711Z 28002KT M04/M07 A3033 RMK A01 T10431071  RH  081%=      5-min Rain = 0
KTH1 120712Z 27002KT M04/M07 A3033 RMK A01 T10431069  RH  082%=      5-min Rain = 0
KTH1 120713Z 27002KT M04/M07 A3033 RMK A01 T10421069  RH  082%=      5-min Rain = 0
KTH1 120714Z 27003KT M04/M07 A3033 RMK A01 T10421068  RH  082%=      5-min Rain = 0
KTH1 120715Z 26002KT M04/M07 A3033 RMK A01 T10411066  RH  083%=      5-min Rain = 0
KTH1 120716Z 27002KT M04/M07 A3033 RMK A01 T10411065  RH  083%=      5-min Rain = 0
KTH1 120717Z 26002KT M04/M06 A3033 RMK A01 T10411064  RH  084%=      5-min Rain = 0
KTH1 120718Z 25001KT M04/M06 A3033 RMK A01 T10401063  RH  084%=      5-min Rain = 0
KTH1 120719Z 26002KT M04/M06 A3033 RMK A01 T10401063  RH  084%=      5-min Rain = 0
KTH1 120720Z 26003KT M04/M06 A3034 RMK A01 T10401064  RH  084%=      5-min Rain = 0
KTH1 120721Z 26002KT M04/M07 A3034 RMK A01 T10401065  RH  083%=      5-min Rain = 0
KTH1 120722Z 26002KT M04/M07 A3033 RMK A01 T10411066  RH  083%=      5-min Rain = 0
KTH1 120723Z 26003KT M04/M07 A3033 RMK A01 T10401065  RH  083%=      5-min Rain = 0
KTH1 120724Z 26003KT M04/M06 A3034 RMK A01 T10401064  RH  084%=      5-min Rain = 0
KTH1 120725Z 27003KT M04/M06 A3034 RMK A01 T10401064  RH  084%=      5-min Rain = 0
KTH1 120726Z 27003KT M04/M07 A3034 RMK A01 T10411065  RH  083%=      5-min Rain = 0
KTH1 120727Z 27002KT M04/M07 A3034 RMK A01 T10411066  RH  083%=      5-min Rain = 0
KTH1 120728Z 27002KT M04/M07 A3034 RMK A01 T10421067  RH  082%=      5-min Rain = 0
KTH1 120729Z 27002KT M04/M07 A3034 RMK A01 T10421068  RH  082%=      5-min Rain = 0
KTH1 120730Z 27002KT M04/M07 A3034 RMK A01 T10431069  RH  082%=      5-min Rain = 0
KTH1 120731Z 28001KT M04/M07 A3034 RMK A01 T10431070  RH  082%=      5-min Rain = 0
KTH1 120732Z 28001KT M04/M07 A3034 RMK A01 T10431070  RH  081%=      5-min Rain = 0
KTH1 120733Z 29001KT M04/M07 A3034 RMK A01 T10441072  RH  081%=      5-min Rain = 0
KTH1 120734Z 30001KT M05/M07 A3034 RMK A01 T10451073  RH  081%=      5-min Rain = 0
KTH1 120735Z 31001KT M05/M07 A3034 RMK A01 T10451074  RH  081%=      5-min Rain = 0
KTH1 120736Z 30002KT M05/M07 A3034 RMK A01 T10461074  RH  081%=      5-min Rain = 0
KTH1 120737Z 30002KT M05/M07 A3034 RMK A01 T10461074  RH  081%=      5-min Rain = 0
KTH1 120738Z 30001KT M05/M07 A3034 RMK A01 T10461073  RH  082%=      5-min Rain = 0
KTH1 120739Z 28002KT M05/M07 A3034 RMK A01 T10471074  RH  081%=      5-min Rain = 0
KTH1 120740Z 29001KT M05/M08 A3034 RMK A01 T10461075  RH  080%=      5-min Rain = 0
KTH1 120741Z 30001KT M05/M09 A3034 RMK A01 T10471087  RH  074%=      5-min Rain = 0
KTH1 120742Z 29001KT M05/M10 A3034 RMK A01 T10471096  RH  068%=      5-min Rain = 0
KTH1 120743Z 30001KT M05/M10 A3034 RMK A01 T10471100  RH  067%=      5-min Rain = 0
KTH1 120744Z 30001KT M05/M10 A3034 RMK A01 T10481102  RH  066%=      5-min Rain = 0
KTH1 120745Z 31001KT M05/M10 A3034 RMK A01 T10491104  RH  066%=      5-min Rain = 0
KTH1 120746Z 32002KT M05/M11 A3034 RMK A01 T10501106  RH  065%=      5-min Rain = 0
KTH1 120747Z 31001KT M05/M11 A3034 RMK A01 T10501108  RH  064%=      5-min Rain = 0
KTH1 120748Z 29002KT M05/M11 A3034 RMK A01 T10501109  RH  063%=      5-min Rain = 0
KTH1 120749Z 28002KT M05/M11 A3035 RMK A01 T10501110  RH  063%=      5-min Rain = 0
KTH1 120750Z 28002KT M05/M11 A3035 RMK A01 T10511111  RH  063%=      5-min Rain = 0
KTH1 120751Z 28002KT M05/M11 A3035 RMK A01 T10511112  RH  062%=      5-min Rain = 0
KTH1 120752Z 29002KT M05/M11 A3035 RMK A01 T10511111  RH  063%=      5-min Rain = 0
KTH1 120753Z 29002KT M05/M11 A3035 RMK A01 T10501107  RH  064%=      5-min Rain = 0
KTH1 120754Z 29002KT M05/M10 A3035 RMK A01 T10501102  RH  067%=      5-min Rain = 0
KTH1 120755Z 29002KT M05/M10 A3035 RMK A01 T10491099  RH  068%=      5-min Rain = 0
KTH1 120756Z 29002KT M05/M10 A3035 RMK A01 T10491099  RH  068%=      5-min Rain = 0
KTH1 120757Z 29002KT M05/M10 A3035 RMK A01 T10491095  RH  070%=      5-min Rain = 0
KTH1 120758Z 29002KT M05/M09 A3035 RMK A01 T10481092  RH  071%=      5-min Rain = 0
KTH1 120759Z 29002KT M05/M10 A3035 RMK A01 T10481095  RH  069%=      5-min Rain = 0
KTH1 120800Z 29002KT M05/M10 A3035 RMK A01 T10481095  RH  070%=      5-min Rain = 0
KTH1 120801Z 27002KT M05/M09 A3035 RMK A01 T10471093  RH  071%=      5-min Rain = 0
KTH1 120802Z 27001KT M05/M09 A3035 RMK A01 T10471091  RH  071%=      5-min Rain = 0
KTH1 120803Z 27001KT M05/M09 A3035 RMK A01 T10471090  RH  072%=      5-min Rain = 0
KTH1 120804Z 26001KT M05/M09 A3035 RMK A01 T10471088  RH  073%=      5-min Rain = 0
KTH1 120805Z 26002KT M05/M08 A3035 RMK A01 T10461080  RH  077%=      5-min Rain = 0
KTH1 120806Z 26002KT M05/M08 A3035 RMK A01 T10461076  RH  079%=      5-min Rain = 0
KTH1 120807Z 26002KT M05/M08 A3035 RMK A01 T10451075  RH  080%=      5-min Rain = 0
KTH1 120808Z 27002KT M05/M07 A3035 RMK A01 T10451074  RH  080%=      5-min Rain = 0
KTH1 120809Z 27002KT M05/M07 A3035 RMK A01 T10451073  RH  081%=      5-min Rain = 0
KTH1 120810Z 28002KT M05/M07 A3035 RMK A01 T10451072  RH  081%=      5-min Rain = 0
KTH1 120811Z 27002KT M05/M07 A3035 RMK A01 T10451071  RH  082%=      5-min Rain = 0
KTH1 120812Z 27002KT M05/M07 A3035 RMK A01 T10451072  RH  082%=      5-min Rain = 0
KTH1 120813Z 27002KT M05/M07 A3035 RMK A01 T10451072  RH  081%=      5-min Rain = 0
KTH1 120814Z 27002KT M05/M07 A3035 RMK A01 T10451072  RH  081%=      5-min Rain = 0
KTH1 120815Z 27002KT M05/M07 A3035 RMK A01 T10451072  RH  081%=      5-min Rain = 0
KTH1 120816Z 28002KT M05/M07 A3035 RMK A01 T10451073  RH  081%=      5-min Rain = 0
KTH1 120817Z 27002KT M05/M07 A3035 RMK A01 T10451074  RH  081%=      5-min Rain = 0
KTH1 120818Z 27002KT M05/M07 A3035 RMK A01 T10461074  RH  081%=      5-min Rain = 0
KTH1 120819Z 28001KT M05/M08 A3035 RMK A01 T10471075  RH  080%=      5-min Rain = 0
KTH1 120820Z 28001KT M05/M08 A3035 RMK A01 T10471076  RH  080%=      5-min Rain = 0
KTH1 120821Z 28001KT M05/M08 A3035 RMK A01 T10471076  RH  080%=      5-min Rain = 0
KTH1 120822Z 26002KT M05/M08 A3035 RMK A01 T10471075  RH  081%=      5-min Rain = 0
KTH1 120823Z 27002KT M05/M08 A3035 RMK A01 T10471075  RH  081%=      5-min Rain = 0
KTH1 120824Z 27002KT M05/M08 A3035 RMK A01 T10471076  RH  080%=      5-min Rain = 0
KTH1 120825Z 27002KT M05/M08 A3035 RMK A01 T10471076  RH  080%=      5-min Rain = 0
KTH1 120826Z 27002KT M05/M07 A3035 RMK A01 T10471074  RH  081%=      5-min Rain = 0
KTH1 120827Z 27002KT M05/M07 A3035 RMK A01 T10471073  RH  082%=      5-min Rain = 0
KTH1 120828Z 27002KT M05/M07 A3035 RMK A01 T10471074  RH  082%=      5-min Rain = 0
KTH1 120829Z 27002KT M05/M07 A3035 RMK A01 T10471074  RH  082%=      5-min Rain = 0
KTH1 120830Z 26002KT M05/M07 A3035 RMK A01 T10471074  RH  082%=      5-min Rain = 0
KTH1 120831Z 26002KT M05/M07 A3035 RMK A01 T10461073  RH  082%=      5-min Rain = 0
KTH1 120832Z 26002KT M05/M07 A3035 RMK A01 T10461074  RH  081%=      5-min Rain = 0
KTH1 120833Z 27002KT M05/M08 A3035 RMK A01 T10471076  RH  080%=      5-min Rain = 0
KTH1 120834Z 27002KT M05/M08 A3035 RMK A01 T10461076  RH  079%=      5-min Rain = 0
KTH1 120835Z 27002KT M05/M08 A3035 RMK A01 T10471076  RH  080%=      5-min Rain = 0
KTH1 120836Z 27002KT M05/M08 A3035 RMK A01 T10471076  RH  080%=      5-min Rain = 0
KTH1 120837Z 27002KT M05/M08 A3035 RMK A01 T10471076  RH  080%=      5-min Rain = 0
KTH1 120838Z 27002KT M05/M08 A3035 RMK A01 T10471075  RH  080%=      5-min Rain = 0
KTH1 120839Z 27002KT M05/M07 A3035 RMK A01 T10471074  RH  081%=      5-min Rain = 0
KTH1 120840Z 28002KT M05/M07 A3035 RMK A01 T10471074  RH  081%=      5-min Rain = 0
KTH1 120841Z 29002KT M05/M08 A3035 RMK A01 T10471075  RH  081%=      5-min Rain = 0
KTH1 120842Z 29002KT M05/M08 A3035 RMK A01 T10471076  RH  080%=      5-min Rain = 0
KTH1 120843Z 29002KT M05/M08 A3035 RMK A01 T10471079  RH  078%=      5-min Rain = 0
KTH1 120844Z 30002KT M05/M08 A3035 RMK A01 T10491083  RH  077%=      5-min Rain = 0
KTH1 120845Z 31002KT M05/M09 A3035 RMK A01 T10501085  RH  076%=      5-min Rain = 0
KTH1 120846Z 31002KT M05/M09 A3035 RMK A01 T10511089  RH  075%=      5-min Rain = 0
KTH1 120847Z 31002KT M05/M10 A3035 RMK A01 T10531097  RH  071%=      5-min Rain = 0
KTH1 120848Z 31001KT M05/M10 A3035 RMK A01 T10541099  RH  071%=      5-min Rain = 0
KTH1 120849Z 32001KT M06/M10 A3035 RMK A01 T10551099  RH  071%=      5-min Rain = 0
KTH1 120850Z 32001KT M06/M10 A3035 RMK A01 T10561101  RH  070%=      5-min Rain = 0
KTH1 120851Z 33001KT M06/M10 A3035 RMK A01 T10571103  RH  070%=      5-min Rain = 0
KTH1 120852Z 33002KT M06/M10 A3035 RMK A01 T10571101  RH  071%=      5-min Rain = 0
KTH1 120853Z 34002KT M06/M10 A3035 RMK A01 T10571099  RH  073%=      5-min Rain = 0
KTH1 120854Z 33002KT M06/M10 A3035 RMK A01 T10571099  RH  072%=      5-min Rain = 0
KTH1 120855Z 33001KT M06/M10 A3035 RMK A01 T10571100  RH  072%=      5-min Rain = 0
KTH1 120856Z 33001KT M06/M10 A3035 RMK A01 T10571101  RH  071%=      5-min Rain = 0
KTH1 120857Z 32001KT M06/M10 A3035 RMK A01 T10561102  RH  070%=      5-min Rain = 0
KTH1 120858Z 30001KT M06/M10 A3035 RMK A01 T10561104  RH  069%=      5-min Rain = 0
KTH1 120859Z 29001KT M06/M11 A3035 RMK A01 T10561105  RH  068%=      5-min Rain = 0
KTH1 120900Z 29001KT M06/M11 A3035 RMK A01 T10561107  RH  067%=      5-min Rain = 0
KTH1 120901Z 30001KT M06/M11 A3035 RMK A01 T10551108  RH  067%=      5-min Rain = 0
KTH1 120902Z 32001KT M06/M11 A3035 RMK A01 T10551108  RH  066%=      5-min Rain = 0
KTH1 120903Z 33002KT M05/M11 A3035 RMK A01 T10541108  RH  066%=      5-min Rain = 0
KTH1 120904Z 32002KT M05/M11 A3035 RMK A01 T10531105  RH  067%=      5-min Rain = 0
KTH1 120905Z 32002KT M05/M10 A3035 RMK A01 T10531102  RH  069%=      5-min Rain = 0
KTH1 120906Z 32002KT M05/M10 A3035 RMK A01 T10521099  RH  070%=      5-min Rain = 0
KTH1 120907Z 32002KT M05/M10 A3035 RMK A01 T10521095  RH  072%=      5-min Rain = 0
KTH1 120908Z 31002KT M05/M10 A3035 RMK A01 T10511096  RH  071%=      5-min Rain = 0
KTH1 120909Z 31002KT M05/M10 A3035 RMK A01 T10511096  RH  071%=      5-min Rain = 0
KTH1 120910Z 31002KT M05/M10 A3035 RMK A01 T10511096  RH  071%=      5-min Rain = 0
KTH1 120911Z 31002KT M05/M10 A3035 RMK A01 T10511096  RH  071%=      5-min Rain = 0
KTH1 120912Z 31002KT M05/M10 A3035 RMK A01 T10511095  RH  071%=      5-min Rain = 0
KTH1 120913Z 30002KT M05/M09 A3035 RMK A01 T10501093  RH  072%=      5-min Rain = 0
KTH1 120914Z 31002KT M05/M09 A3035 RMK A01 T10501093  RH  071%=      5-min Rain = 0
KTH1 120915Z 30002KT M05/M09 A3035 RMK A01 T10491094  RH  070%=      5-min Rain = 0
KTH1 120916Z 31002KT M05/M10 A3035 RMK A01 T10491098  RH  069%=      5-min Rain = 0
KTH1 120917Z 31002KT M05/M10 A3035 RMK A01 T10491104  RH  066%=      5-min Rain = 0
KTH1 120918Z 32002KT M05/M11 A3035 RMK A01 T10491106  RH  064%=      5-min Rain = 0
KTH1 120919Z 32002KT M05/M11 A3035 RMK A01 T10501108  RH  064%=      5-min Rain = 0
KTH1 120920Z 32002KT M05/M11 A3035 RMK A01 T10501111  RH  063%=      5-min Rain = 0
KTH1 120921Z 33002KT M05/M11 A3035 RMK A01 T10511113  RH  062%=      5-min Rain = 0
KTH1 120922Z 33002KT M05/M11 A3035 RMK A01 T10521113  RH  062%=      5-min Rain = 0
KTH1 120923Z 34002KT M05/M11 A3035 RMK A01 T10521113  RH  062%=      5-min Rain = 0
KTH1 120924Z 34002KT M05/M11 A3036 RMK A01 T10531114  RH  062%=      5-min Rain = 0
KTH1 120925Z 34002KT M05/M11 A3036 RMK A01 T10531114  RH  063%=      5-min Rain = 0
KTH1 120926Z 33002KT M05/M11 A3036 RMK A01 T10541113  RH  063%=      5-min Rain = 0
KTH1 120927Z 32002KT M05/M11 A3036 RMK A01 T10541113  RH  063%=      5-min Rain = 0
KTH1 120928Z 33002KT M05/M11 A3036 RMK A01 T10541113  RH  063%=      5-min Rain = 0
KTH1 120929Z 32002KT M05/M11 A3036 RMK A01 T10541111  RH  064%=      5-min Rain = 0
KTH1 120930Z 31002KT M05/M11 A3036 RMK A01 T10541110  RH  065%=      5-min Rain = 0
KTH1 120931Z 31002KT M05/M11 A3036 RMK A01 T10541109  RH  065%=      5-min Rain = 0
KTH1 120932Z 31002KT M05/M11 A3036 RMK A01 T10541108  RH  066%=      5-min Rain = 0
KTH1 120933Z 30002KT M05/M11 A3036 RMK A01 T10541107  RH  066%=      5-min Rain = 0
KTH1 120934Z 31002KT M05/M11 A3036 RMK A01 T10531105  RH  067%=      5-min Rain = 0
KTH1 120935Z 31002KT M05/M10 A3036 RMK A01 T10531103  RH  067%=      5-min Rain = 0
KTH1 120936Z 30002KT M05/M10 A3036 RMK A01 T10521103  RH  068%=      5-min Rain = 0
KTH1 120937Z 30002KT M05/M10 A3036 RMK A01 T10521102  RH  068%=      5-min Rain = 0
KTH1 120938Z 30002KT M05/M10 A3036 RMK A01 T10521103  RH  067%=      5-min Rain = 0
KTH1 120939Z 29002KT M05/M10 A3036 RMK A01 T10521102  RH  068%=      5-min Rain = 0
KTH1 120940Z 30002KT M05/M10 A3036 RMK A01 T10511102  RH  068%=      5-min Rain = 0
KTH1 120941Z 30002KT M05/M10 A3036 RMK A01 T10501101  RH  068%=      5-min Rain = 0
KTH1 120942Z 31002KT M05/M10 A3036 RMK A01 T10501102  RH  067%=      5-min Rain = 0
KTH1 120943Z 30001KT M05/M10 A3036 RMK A01 T10491102  RH  067%=      5-min Rain = 0
KTH1 120944Z 30000KT M05/M10 A3036 RMK A01 T10501103  RH  067%=      5-min Rain = 0
KTH1 120945Z 33001KT M05/M10 A3037 RMK A01 T10501101  RH  068%=      5-min Rain = 0
KTH1 120946Z 01001KT M05/M10 A3037 RMK A01 T10501101  RH  067%=      5-min Rain = 0
KTH1 120947Z 35001KT M05/M10 A3037 RMK A01 T10501103  RH  066%=      5-min Rain = 0
KTH1 120948Z 02001KT M05/M11 A3037 RMK A01 T10511105  RH  066%=      5-min Rain = 0
KTH1 120949Z 02001KT M05/M11 A3037 RMK A01 T10511105  RH  066%=      5-min Rain = 0
KTH1 120950Z 04002KT M05/M11 A3037 RMK A01 T10501106  RH  065%=      5-min Rain = 0
KTH1 120951Z 02001KT M05/M11 A3037 RMK A01 T10511106  RH  065%=      5-min Rain = 0
KTH1 120952Z 03001KT M05/M11 A3037 RMK A01 T10511107  RH  065%=      5-min Rain = 0
KTH1 120953Z 03001KT M05/M11 A3037 RMK A01 T10511107  RH  064%=      5-min Rain = 0
KTH1 120954Z 02001KT M05/M11 A3037 RMK A01 T10511108  RH  064%=      5-min Rain = 0
KTH1 120955Z 02002KT M05/M11 A3037 RMK A01 T10511109  RH  064%=      5-min Rain = 0
KTH1 120956Z 02001KT M05/M11 A3037 RMK A01 T10511109  RH  064%=      5-min Rain = 0
KTH1 120957Z 02002KT M05/M11 A3037 RMK A01 T10511110  RH  063%=      5-min Rain = 0
KTH1 120958Z 01001KT M05/M11 A3037 RMK A01 T10511111  RH  063%=      5-min Rain = 0
KTH1 120959Z 00002KT M05/M11 A3037 RMK A01 T10511111  RH  063%=      5-min Rain = 0
KTH1 121000Z 00002KT M05/M11 A3037 RMK A01 T10511111  RH  063%=      5-min Rain = 0
KTH1 121001Z 36002KT M05/M11 A3037 RMK A01 T10521112  RH  063%=      5-min Rain = 0
KTH1 121002Z 35002KT M05/M11 A3037 RMK A01 T10531114  RH  063%=      5-min Rain = 0
KTH1 121003Z 34002KT M06/M11 A3037 RMK A01 T10551114  RH  063%=      5-min Rain = 0
KTH1 121004Z 34002KT M06/M11 A3037 RMK A01 T10551114  RH  063%=      5-min Rain = 0
KTH1 121005Z 34002KT M06/M12 A3037 RMK A01 T10561115  RH  063%=      5-min Rain = 0
KTH1 121006Z 35003KT M06/M12 A3037 RMK A01 T10561115  RH  063%=      5-min Rain = 0
KTH1 121007Z 35003KT M06/M12 A3037 RMK A01 T10561115  RH  063%=      5-min Rain = 0
KTH1 121008Z 35003KT M06/M11 A3037 RMK A01 T10561114  RH  063%=      5-min Rain = 0
KTH1 121009Z 34003KT M06/M11 A3037 RMK A01 T10551114  RH  063%=      5-min Rain = 0
KTH1 121010Z 34003KT M06/M11 A3038 RMK A01 T10551114  RH  063%=      5-min Rain = 0
KTH1 121011Z 35003KT M06/M11 A3038 RMK A01 T10551114  RH  063%=      5-min Rain = 0
KTH1 121012Z 35003KT M06/M11 A3038 RMK A01 T10561114  RH  063%=      5-min Rain = 0
KTH1 121013Z 00003KT M06/M11 A3038 RMK A01 T10561114  RH  064%=      5-min Rain = 0
KTH1 121014Z 35002KT M06/M11 A3038 RMK A01 T10551114  RH  063%=      5-min Rain = 0
KTH1 121015Z 34002KT M06/M11 A3038 RMK A01 T10551114  RH  063%=      5-min Rain = 0
KTH1 121016Z 33002KT M06/M12 A3038 RMK A01 T10551115  RH  063%=      5-min Rain = 0
KTH1 121017Z 33002KT M06/M12 A3038 RMK A01 T10561115  RH  063%=      5-min Rain = 0
KTH1 121018Z 33002KT M06/M12 A3038 RMK A01 T10551115  RH  063%=      5-min Rain = 0
KTH1 121019Z 33002KT M06/M11 A3038 RMK A01 T10561114  RH  063%=      5-min Rain = 0
KTH1 121020Z 34003KT M06/M11 A3038 RMK A01 T10561114  RH  064%=      5-min Rain = 0
KTH1 121021Z 34003KT M06/M11 A3038 RMK A01 T10561114  RH  064%=      5-min Rain = 0
KTH1 121022Z 35003KT M06/M11 A3037 RMK A01 T10561114  RH  063%=      5-min Rain = 0
KTH1 121023Z 35003KT M06/M11 A3038 RMK A01 T10561114  RH  063%=      5-min Rain = 0
KTH1 121024Z 35002KT M06/M12 A3038 RMK A01 T10561115  RH  063%=      5-min Rain = 0
KTH1 121025Z 35002KT M06/M12 A3038 RMK A01 T10571115  RH  064%=      5-min Rain = 0
KTH1 121026Z 35002KT M06/M12 A3038 RMK A01 T10571115  RH  064%=      5-min Rain = 0
KTH1 121027Z 00002KT M06/M12 A3038 RMK A01 T10571115  RH  064%=      5-min Rain = 0
KTH1 121028Z 00002KT M06/M12 A3038 RMK A01 T10581115  RH  064%=      5-min Rain = 0
KTH1 121029Z 00002KT M06/M12 A3038 RMK A01 T10581115  RH  064%=      5-min Rain = 0
KTH1 121030Z 35002KT M06/M12 A3038 RMK A01 T10591115  RH  064%=      5-min Rain = 0
KTH1 121031Z 00002KT M06/M11 A3037 RMK A01 T10591114  RH  065%=      5-min Rain = 0
KTH1 121032Z 01002KT M06/M11 A3037 RMK A01 T10591114  RH  065%=      5-min Rain = 0
KTH1 121033Z 02002KT M06/M11 A3037 RMK A01 T10591114  RH  065%=      5-min Rain = 0
KTH1 121034Z 01002KT M06/M11 A3037 RMK A01 T10591114  RH  065%=      5-min Rain = 0
KTH1 121035Z 00002KT M06/M11 A3038 RMK A01 T10591113  RH  065%=      5-min Rain = 0
KTH1 121036Z 00002KT M06/M11 A3038 RMK A01 T10591113  RH  066%=      5-min Rain = 0
KTH1 121037Z 35002KT M06/M11 A3038 RMK A01 T10591113  RH  066%=      5-min Rain = 0
KTH1 121038Z 00002KT M06/M11 A3038 RMK A01 T10581113  RH  065%=      5-min Rain = 0
KTH1 121039Z 01002KT M06/M11 A3038 RMK A01 T10581113  RH  065%=      5-min Rain = 0
KTH1 121040Z 01002KT M06/M11 A3038 RMK A01 T10581114  RH  065%=      5-min Rain = 0
KTH1 121041Z 00002KT M06/M11 A3038 RMK A01 T10581114  RH  065%=      5-min Rain = 0
KTH1 121042Z 01002KT M06/M11 A3038 RMK A01 T10581114  RH  065%=      5-min Rain = 0
KTH1 121043Z 01002KT M06/M12 A3038 RMK A01 T10591115  RH  065%=      5-min Rain = 0
KTH1 121044Z 00002KT M06/M12 A3038 RMK A01 T10601115  RH  065%=      5-min Rain = 0
KTH1 121045Z 00002KT M06/M12 A3038 RMK A01 T10601115  RH  065%=      5-min Rain = 0
KTH1 121046Z 00002KT M06/M12 A3038 RMK A01 T10601115  RH  065%=      5-min Rain = 0
KTH1 121047Z 00002KT M06/M11 A3038 RMK A01 T10591114  RH  065%=      5-min Rain = 0
KTH1 121048Z 36002KT M06/M11 A3038 RMK A01 T10591114  RH  065%=      5-min Rain = 0
KTH1 121049Z 00002KT M06/M11 A3038 RMK A01 T10581114  RH  065%=      5-min Rain = 0
KTH1 121050Z 35002KT M06/M11 A3038 RMK A01 T10581114  RH  065%=      5-min Rain = 0
KTH1 121051Z 34002KT M06/M11 A3038 RMK A01 T10581114  RH  065%=      5-min Rain = 0
KTH1 121052Z 33002KT M06/M11 A3038 RMK A01 T10581114  RH  065%=      5-min Rain = 0
KTH1 121053Z 32002KT M06/M11 A3038 RMK A01 T10581113  RH  065%=      5-min Rain = 0
KTH1 121054Z 31002KT M06/M11 A3038 RMK A01 T10581109  RH  067%=      5-min Rain = 0
KTH1 121055Z 32002KT M06/M11 A3038 RMK A01 T10581106  RH  068%=      5-min Rain = 0
KTH1 121056Z 33001KT M06/M11 A3038 RMK A01 T10571105  RH  069%=      5-min Rain = 0
KTH1 121057Z 34001KT M06/M11 A3038 RMK A01 T10561106  RH  068%=      5-min Rain = 0
KTH1 121058Z 34001KT M06/M11 A3038 RMK A01 T10561108  RH  067%=      5-min Rain = 0
KTH1 121059Z 34001KT M06/M11 A3038 RMK A01 T10551110  RH  065%=      5-min Rain = 0
KTH1 121100Z 34002KT M06/M11 A3038 RMK A01 T10551111  RH  065%=      5-min Rain = 0
KTH1 121101Z 34002KT M05/M11 A3038 RMK A01 T10541113  RH  064%=      5-min Rain = 0
KTH1 121102Z 33002KT M05/M11 A3038 RMK A01 T10541113  RH  063%=      5-min Rain = 0
KTH1 121103Z 33001KT M05/M11 A3038 RMK A01 T10531113  RH  063%=      5-min Rain = 0
KTH1 121104Z 31001KT M05/M11 A3038 RMK A01 T10541113  RH  063%=      5-min Rain = 0
KTH1 121105Z 31001KT M05/M11 A3038 RMK A01 T10541113  RH  063%=      5-min Rain = 0
KTH1 121106Z 32002KT M05/M11 A3038 RMK A01 T10541112  RH  064%=      5-min Rain = 0
KTH1 121107Z 32002KT M05/M11 A3038 RMK A01 T10541111  RH  064%=      5-min Rain = 0
KTH1 121108Z 33002KT M05/M11 A3038 RMK A01 T10541110  RH  064%=      5-min Rain = 0
KTH1 121109Z 33002KT M05/M11 A3038 RMK A01 T10541111  RH  064%=      5-min Rain = 0
KTH1 121110Z 32001KT M05/M11 A3038 RMK A01 T10541113  RH  063%=      5-min Rain = 0
KTH1 121111Z 32001KT M05/M11 A3038 RMK A01 T10541114  RH  063%=      5-min Rain = 0
KTH1 121112Z 32001KT M05/M11 A3038 RMK A01 T10541114  RH  063%=      5-min Rain = 0
KTH1 121113Z 32001KT M06/M12 A3038 RMK A01 T10551115  RH  063%=      5-min Rain = 0
KTH1 121114Z 31001KT M06/M12 A3038 RMK A01 T10551115  RH  063%=      5-min Rain = 0
KTH1 121115Z 31001KT M06/M12 A3038 RMK A01 T10561115  RH  063%=      5-min Rain = 0
KTH1 121116Z 33001KT M06/M12 A3039 RMK A01 T10561115  RH  063%=      5-min Rain = 0
KTH1 121117Z 33001KT M06/M12 A3038 RMK A01 T10571115  RH  063%=      5-min Rain = 0
KTH1 121118Z 34001KT M06/M12 A3038 RMK A01 T10571115  RH  063%=      5-min Rain = 0
KTH1 121119Z 36001KT M06/M12 A3038 RMK A01 T10581116  RH  064%=      5-min Rain = 0
KTH1 121120Z 00001KT M06/M12 A3038 RMK A01 T10581116  RH  064%=      5-min Rain = 0
KTH1 121121Z 00001KT M06/M12 A3038 RMK A01 T10591116  RH  064%=      5-min Rain = 0
KTH1 121122Z 00001KT M06/M12 A3038 RMK A01 T10591116  RH  064%=      5-min Rain = 0
KTH1 121123Z 35001KT M06/M12 A3038 RMK A01 T10591116  RH  064%=      5-min Rain = 0
KTH1 121124Z 34001KT M06/M12 A3038 RMK A01 T10601116  RH  064%=      5-min Rain = 0
KTH1 121125Z 00002KT M06/M12 A3038 RMK A01 T10601116  RH  064%=      5-min Rain = 0
KTH1 121126Z 35002KT M06/M12 A3038 RMK A01 T10601116  RH  065%=      5-min Rain = 0
KTH1 121127Z 36002KT M06/M11 A3038 RMK A01 T10601114  RH  066%=      5-min Rain = 0
KTH1 121128Z 00002KT M06/M11 A3038 RMK A01 T10591113  RH  066%=      5-min Rain = 0
KTH1 121129Z 35002KT M06/M11 A3038 RMK A01 T10601114  RH  066%=      5-min Rain = 0
KTH1 121130Z 35002KT M06/M11 A3038 RMK A01 T10601114  RH  066%=      5-min Rain = 0
KTH1 121131Z 35001KT M06/M11 A3038 RMK A01 T10601114  RH  065%=      5-min Rain = 0
KTH1 121132Z 01002KT M06/M12 A3038 RMK A01 T10601115  RH  065%=      5-min Rain = 0
KTH1 121133Z 36002KT M06/M12 A3038 RMK A01 T10611115  RH  065%=      5-min Rain = 0
KTH1 121134Z 35002KT M06/M12 A3038 RMK A01 T10611116  RH  065%=      5-min Rain = 0
KTH1 121135Z 34002KT M06/M12 A3038 RMK A01 T10611115  RH  066%=      5-min Rain = 0
KTH1 121136Z 35001KT M06/M12 A3038 RMK A01 T10611115  RH  066%=      5-min Rain = 0
KTH1 121137Z 35001KT M06/M12 A3038 RMK A01 T10611115  RH  066%=      5-min Rain = 0
KTH1 121138Z 35001KT M06/M12 A3038 RMK A01 T10621115  RH  066%=      5-min Rain = 0
KTH1 121139Z 35002KT M06/M11 A3038 RMK A01 T10621114  RH  067%=      5-min Rain = 0
KTH1 121140Z 36002KT M06/M11 A3038 RMK A01 T10621114  RH  066%=      5-min Rain = 0
KTH1 121141Z 01002KT M06/M12 A3038 RMK A01 T10611115  RH  066%=      5-min Rain = 0
KTH1 121142Z 01002KT M06/M12 A3038 RMK A01 T10621116  RH  066%=      5-min Rain = 0
KTH1 121143Z 00002KT M06/M12 A3038 RMK A01 T10621116  RH  066%=      5-min Rain = 0
KTH1 121144Z 00002KT M06/M12 A3038 RMK A01 T10631117  RH  066%=      5-min Rain = 0
KTH1 121145Z 01002KT M06/M12 A3038 RMK A01 T10631117  RH  066%=      5-min Rain = 0
KTH1 121146Z 01002KT M06/M12 A3038 RMK A01 T10641117  RH  066%=      5-min Rain = 0
KTH1 121147Z 01002KT M07/M12 A3038 RMK A01 T10651117  RH  066%=      5-min Rain = 0
KTH1 121148Z 01002KT M07/M12 A3038 RMK A01 T10651117  RH  067%=      5-min Rain = 0
KTH1 121149Z 01002KT M07/M12 A3038 RMK A01 T10661117  RH  067%=      5-min Rain = 0
KTH1 121150Z 00003KT M07/M12 A3038 RMK A01 T10661117  RH  067%=      5-min Rain = 0
KTH1 121151Z 00003KT M07/M12 A3038 RMK A01 T10661117  RH  067%=      5-min Rain = 0
KTH1 121152Z 01003KT M07/M12 A3038 RMK A01 T10671117  RH  067%=      5-min Rain = 0
KTH1 121153Z 01003KT M07/M12 A3038 RMK A01 T10671117  RH  068%=      5-min Rain = 0
KTH1 121154Z 00003KT M07/M12 A3038 RMK A01 T10671117  RH  068%=      5-min Rain = 0
KTH1 121155Z 00003KT M07/M12 A3038 RMK A01 T10671117  RH  068%=      5-min Rain = 0
KTH1 121156Z 00003KT M07/M12 A3038 RMK A01 T10681117  RH  068%=      5-min Rain = 0
KTH1 121157Z 00003KT M07/M12 A3038 RMK A01 T10681117  RH  068%=      5-min Rain = 0
KTH1 121158Z 00003KT M07/M12 A3038 RMK A01 T10681117  RH  068%=      5-min Rain = 0
KTH1 121159Z 00003KT M07/M12 A3038 RMK A01 T10691117  RH  069%=      5-min Rain = 0
KTH1 121200Z 00002KT M07/M12 A3039 RMK A01 T10691116  RH  069%=      5-min Rain = 0
KTH1 121201Z 36002KT M07/M12 A3039 RMK A01 T10701116  RH  070%=      5-min Rain = 0
KTH1 121202Z 35002KT M07/M12 A3039 RMK A01 T10701116  RH  070%=      5-min Rain = 0
KTH1 121203Z 33002KT M07/M12 A3039 RMK A01 T10701115  RH  070%=      5-min Rain = 0
KTH1 121204Z 32002KT M07/M11 A3039 RMK A01 T10701113  RH  071%=      5-min Rain = 0
KTH1 121205Z 31002KT M07/M11 A304 RMK A01 T10691111  RH  072%=      5-min Rain = 0
KTH1 121206Z 31002KT M07/M11 A304 RMK A01 T10681109  RH  073%=      5-min Rain = 0
KTH1 121207Z 31002KT M07/M11 A304 RMK A01 T10671108  RH  073%=      5-min Rain = 0
KTH1 121208Z 30002KT M07/M11 A304 RMK A01 T10661106  RH  073%=      5-min Rain = 0
KTH1 121209Z 30002KT M06/M10 A304 RMK A01 T10641104  RH  073%=      5-min Rain = 0
KTH1 121210Z 31002KT M06/M10 A304 RMK A01 T10631101  RH  074%=      5-min Rain = 0
KTH1 121211Z 30002KT M06/M10 A304 RMK A01 T10611099  RH  074%=      5-min Rain = 0
KTH1 121212Z 33002KT M06/M10 A304 RMK A01 T10601100  RH  074%=      5-min Rain = 0
KTH1 121213Z 33002KT M06/M10 A304 RMK A01 T10601100  RH  073%=      5-min Rain = 0
KTH1 121214Z 33002KT M06/M10 A304 RMK A01 T10601101  RH  073%=      5-min Rain = 0
KTH1 121215Z 33002KT M06/M10 A304 RMK A01 T10601102  RH  072%=      5-min Rain = 0
KTH1 121216Z 35002KT M06/M11 A304 RMK A01 T10601105  RH  070%=      5-min Rain = 0
KTH1 121217Z 34002KT M06/M11 A304 RMK A01 T10611108  RH  069%=      5-min Rain = 0
KTH1 121218Z 34002KT M06/M11 A304 RMK A01 T10621109  RH  069%=      5-min Rain = 0
KTH1 121219Z 33002KT M06/M11 A3041 RMK A01 T10631111  RH  069%=      5-min Rain = 0
KTH1 121220Z 32003KT M06/M11 A3041 RMK A01 T10641112  RH  069%=      5-min Rain = 0
KTH1 121221Z 31003KT M07/M11 A3041 RMK A01 T10651112  RH  069%=      5-min Rain = 0
KTH1 121222Z 30003KT M06/M11 A3041 RMK A01 T10641109  RH  071%=      5-min Rain = 0
KTH1 121223Z 30003KT M07/M11 A3041 RMK A01 T10651106  RH  072%=      5-min Rain = 0
KTH1 121224Z 31003KT M06/M11 A3041 RMK A01 T10641105  RH  073%=      5-min Rain = 0
KTH1 121225Z 30003KT M06/M11 A3042 RMK A01 T10641105  RH  073%=      5-min Rain = 0
KTH1 121226Z 31003KT M06/M10 A3042 RMK A01 T10631104  RH  073%=      5-min Rain = 0
KTH1 121227Z 32003KT M06/M10 A3042 RMK A01 T10631104  RH  072%=      5-min Rain = 0
KTH1 121228Z 33003KT M06/M11 A3041 RMK A01 T10631107  RH  071%=      5-min Rain = 0
KTH1 121229Z 33003KT M06/M11 A3041 RMK A01 T10631106  RH  071%=      5-min Rain = 0
KTH1 121230Z 33003KT M06/M11 A3041 RMK A01 T10641108  RH  071%=      5-min Rain = 0
KTH1 121231Z 34003KT M06/M11 A3041 RMK A01 T10641111  RH  070%=      5-min Rain = 0
KTH1 121232Z 34002KT M07/M11 A3041 RMK A01 T10661113  RH  069%=      5-min Rain = 0
KTH1 121233Z 34002KT M07/M11 A3041 RMK A01 T10661114  RH  069%=      5-min Rain = 0
KTH1 121234Z 35003KT M07/M11 A3041 RMK A01 T10681114  RH  069%=      5-min Rain = 0
KTH1 121235Z 35003KT M07/M12 A3041 RMK A01 T10691115  RH  069%=      5-min Rain = 0
KTH1 121236Z 35003KT M07/M12 A3041 RMK A01 T10701116  RH  070%=      5-min Rain = 0
KTH1 121237Z 34003KT M07/M12 A3041 RMK A01 T10701116  RH  070%=      5-min Rain = 0
KTH1 121238Z 32003KT M07/M12 A3042 RMK A01 T10711115  RH  071%=      5-min Rain = 0
KTH1 121239Z 31004KT M07/M11 A3042 RMK A01 T10711114  RH  071%=      5-min Rain = 0
KTH1 121240Z 32003KT M07/M11 A3042 RMK A01 T10711114  RH  072%=      5-min Rain = 0
KTH1 121241Z 34003KT M07/M11 A3042 RMK A01 T10711113  RH  072%=      5-min Rain = 0
KTH1 121242Z 34004KT M07/M11 A3041 RMK A01 T10701112  RH  072%=      5-min Rain = 0
KTH1 121243Z 35004KT M07/M11 A3041 RMK A01 T10711113  RH  072%=      5-min Rain = 0
KTH1 121244Z 35004KT M07/M11 A3041 RMK A01 T10711114  RH  071%=      5-min Rain = 0
KTH1 121245Z 35004KT M07/M12 A3041 RMK A01 T10711115  RH  071%=      5-min Rain = 0
KTH1 121246Z 34004KT M07/M12 A3041 RMK A01 T10721115  RH  071%=      5-min Rain = 0
KTH1 121247Z 35004KT M07/M12 A3041 RMK A01 T10721116  RH  071%=      5-min Rain = 0
KTH1 121248Z 34003KT M07/M12 A3041 RMK A01 T10731116  RH  071%=      5-min Rain = 0
KTH1 121249Z 34003KT M07/M12 A3041 RMK A01 T10731116  RH  072%=      5-min Rain = 0
KTH1 121250Z 34003KT M07/M12 A3041 RMK A01 T10741115  RH  072%=      5-min Rain = 0
KTH1 121251Z 35003KT M07/M11 A3041 RMK A01 T10741114  RH  073%=      5-min Rain = 0
KTH1 121252Z 36002KT M07/M11 A3041 RMK A01 T10741114  RH  073%=      5-min Rain = 0
KTH1 121253Z 36003KT M08/M12 A304 RMK A01 T10751115  RH  073%=      5-min Rain = 0
KTH1 121254Z 34003KT M08/M12 A304 RMK A01 T10751115  RH  073%=      5-min Rain = 0
KTH1 121255Z 35003KT M07/M12 A3041 RMK A01 T10741116  RH  072%=      5-min Rain = 0
KTH1 121256Z 35002KT M07/M12 A3041 RMK A01 T10741116  RH  072%=      5-min Rain = 0
KTH1 121257Z 00002KT M07/M12 A3041 RMK A01 T10741115  RH  072%=      5-min Rain = 0
KTH1 121258Z 00002KT M07/M12 A3041 RMK A01 T10741115  RH  072%=      5-min Rain = 0
KTH1 121259Z 01002KT M07/M11 A3041 RMK A01 T10731114  RH  072%=      5-min Rain = 0
KTH1 121300Z 01002KT M07/M11 A3041 RMK A01 T10731114  RH  072%=      5-min Rain = 0
KTH1 121301Z 02003KT M07/M11 A304 RMK A01 T10721113  RH  072%=      5-min Rain = 0
KTH1 121302Z 01003KT M07/M11 A304 RMK A01 T10721113  RH  072%=      5-min Rain = 0
KTH1 121303Z 00003KT M07/M11 A3041 RMK A01 T10721113  RH  072%=      5-min Rain = 0
KTH1 121304Z 34003KT M07/M11 A3041 RMK A01 T10721113  RH  072%=      5-min Rain = 0
KTH1 121305Z 00003KT M07/M11 A3041 RMK A01 T10711114  RH  072%=      5-min Rain = 0
KTH1 121306Z 35003KT M07/M11 A304 RMK A01 T10711113  RH  072%=      5-min Rain = 0
KTH1 121307Z 01002KT M07/M11 A304 RMK A01 T10711114  RH  072%=      5-min Rain = 0
KTH1 121308Z 02002KT M07/M11 A304 RMK A01 T10711114  RH  072%=      5-min Rain = 0
KTH1 121309Z 03002KT M07/M11 A304 RMK A01 T10711114  RH  072%=      5-min Rain = 0
KTH1 121310Z 02002KT M07/M11 A304 RMK A01 T10711113  RH  072%=      5-min Rain = 0
KTH1 121311Z 03002KT M07/M11 A304 RMK A01 T10711114  RH  072%=      5-min Rain = 0
KTH1 121312Z 01002KT M07/M11 A3041 RMK A01 T10711114  RH  072%=      5-min Rain = 0
KTH1 121313Z 35002KT M07/M11 A3041 RMK A01 T10721114  RH  072%=      5-min Rain = 0
KTH1 121314Z 33002KT M07/M11 A3041 RMK A01 T10711114  RH  072%=      5-min Rain = 0
KTH1 121315Z 32002KT M07/M11 A3041 RMK A01 T10711113  RH  072%=      5-min Rain = 0
KTH1 121316Z 32002KT M07/M11 A3041 RMK A01 T10711113  RH  072%=      5-min Rain = 0
KTH1 121317Z 34001KT M07/M11 A3041 RMK A01 T10711112  RH  073%=      5-min Rain = 0
KTH1 121318Z 35002KT M07/M11 A3041 RMK A01 T10701111  RH  073%=      5-min Rain = 0
KTH1 121319Z 02002KT M07/M11 A3041 RMK A01 T10701112  RH  072%=      5-min Rain = 0
KTH1 121320Z 01002KT M07/M11 A3041 RMK A01 T10691113  RH  071%=      5-min Rain = 0
KTH1 121321Z 03002KT M07/M11 A3041 RMK A01 T10691113  RH  071%=      5-min Rain = 0
KTH1 121322Z 03002KT M07/M11 A3041 RMK A01 T10691113  RH  071%=      5-min Rain = 0
KTH1 121323Z 02003KT M07/M11 A3041 RMK A01 T10691113  RH  071%=      5-min Rain = 0
KTH1 121324Z 03003KT M07/M11 A3041 RMK A01 T10701114  RH  071%=      5-min Rain = 0
KTH1 121325Z 02004KT M07/M11 A304 RMK A01 T10701114  RH  071%=      5-min Rain = 0
KTH1 121326Z 02004KT M07/M11 A304 RMK A01 T10701113  RH  071%=      5-min Rain = 0
KTH1 121327Z 03005KT M07/M11 A304 RMK A01 T10701113  RH  072%=      5-min Rain = 0
KTH1 121328Z 03004KT M07/M11 A304 RMK A01 T10701112  RH  072%=      5-min Rain = 0
KTH1 121329Z 03005KT M07/M11 A304 RMK A01 T10701112  RH  072%=      5-min Rain = 0
KTH1 121330Z 03004KT M07/M11 A304 RMK A01 T10701112  RH  072%=      5-min Rain = 0
KTH1 121331Z 02004KT M07/M11 A304 RMK A01 T10691111  RH  072%=      5-min Rain = 0
KTH1 121332Z 02003KT M07/M11 A304 RMK A01 T10691112  RH  072%=      5-min Rain = 0
KTH1 121333Z 03004KT M07/M11 A304 RMK A01 T10691111  RH  072%=      5-min Rain = 0
KTH1 121334Z 02003KT M07/M11 A304 RMK A01 T10691111  RH  072%=      5-min Rain = 0
KTH1 121335Z 02002KT M07/M11 A3041 RMK A01 T10691112  RH  072%=      5-min Rain = 0
KTH1 121336Z 01002KT M07/M11 A3041 RMK A01 T10691111  RH  072%=      5-min Rain = 0
KTH1 121337Z 02001KT M07/M11 A3041 RMK A01 T10681111  RH  072%=      5-min Rain = 0
KTH1 121338Z 35000KT M07/M11 A3041 RMK A01 T10691110  RH  072%=      5-min Rain = 0
KTH1 121339Z 28000KT M07/M11 A3042 RMK A01 T10691110  RH  072%=      5-min Rain = 0
KTH1 121340Z 28001KT M07/M11 A3042 RMK A01 T10681109  RH  073%=      5-min Rain = 0
KTH1 121341Z 31001KT M07/M11 A3042 RMK A01 T10671108  RH  073%=      5-min Rain = 0
KTH1 121342Z 33001KT M07/M11 A3042 RMK A01 T10671107  RH  073%=      5-min Rain = 0
KTH1 121343Z 35002KT M07/M11 A3042 RMK A01 T10661107  RH  073%=      5-min Rain = 0
KTH1 121344Z 36003KT M07/M11 A3042 RMK A01 T10651107  RH  072%=      5-min Rain = 0
KTH1 121345Z 00003KT M07/M11 A3041 RMK A01 T10651108  RH  071%=      5-min Rain = 0
KTH1 121346Z 02002KT M07/M11 A3041 RMK A01 T10651109  RH  071%=      5-min Rain = 0
KTH1 121347Z 03002KT M07/M11 A3041 RMK A01 T10651110  RH  070%=      5-min Rain = 0
KTH1 121348Z 05002KT M07/M11 A3041 RMK A01 T10651111  RH  070%=      5-min Rain = 0
KTH1 121349Z 06001KT M07/M11 A3042 RMK A01 T10651111  RH  070%=      5-min Rain = 0
KTH1 121350Z 08001KT M06/M11 A3042 RMK A01 T10641111  RH  070%=      5-min Rain = 0
KTH1 121351Z 08000KT M06/M11 A3042 RMK A01 T10641111  RH  069%=      5-min Rain = 0
KTH1 121352Z 01001KT M06/M11 A3042 RMK A01 T10631111  RH  069%=      5-min Rain = 0
KTH1 121353Z 36001KT M06/M11 A3042 RMK A01 T10641111  RH  069%=      5-min Rain = 0
KTH1 121354Z 01002KT M06/M11 A3042 RMK A01 T10641111  RH  069%=      5-min Rain = 0
KTH1 121355Z 01002KT M06/M11 A3042 RMK A01 T10641111  RH  069%=      5-min Rain = 0
KTH1 121356Z 02002KT M06/M11 A3042 RMK A01 T10641110  RH  069%=      5-min Rain = 0
KTH1 121357Z 03001KT M06/M11 A3042 RMK A01 T10631110  RH  069%=      5-min Rain = 0
KTH1 121358Z 03001KT M06/M11 A3042 RMK A01 T10641111  RH  069%=      5-min Rain = 0
KTH1 121359Z 03002KT M06/M11 A3042 RMK A01 T10641111  RH  069%=      5-min Rain = 0
KTH1 121400Z 04002KT M06/M11 A3042 RMK A01 T10641112  RH  069%=      5-min Rain = 0
KTH1 121401Z 06002KT M06/M11 A3042 RMK A01 T10631111  RH  069%=      5-min Rain = 0
KTH1 121402Z 06002KT M06/M11 A3042 RMK A01 T10621110  RH  069%=      5-min Rain = 0
KTH1 121403Z 06002KT M06/M11 A3042 RMK A01 T10621110  RH  069%=      5-min Rain = 0
KTH1 121404Z 05002KT M06/M11 A3041 RMK A01 T10621110  RH  069%=      5-min Rain = 0
KTH1 121405Z 06003KT M06/M11 A3041 RMK A01 T10621110  RH  069%=      5-min Rain = 0
KTH1 121406Z 07003KT M06/M11 A3041 RMK A01 T10611109  RH  069%=      5-min Rain = 0
KTH1 121407Z 09002KT M06/M11 A3041 RMK A01 T10611108  RH  069%=      5-min Rain = 0
KTH1 121408Z 10002KT M06/M11 A3042 RMK A01 T10601108  RH  069%=      5-min Rain = 0
KTH1 121409Z 11002KT M06/M11 A3042 RMK A01 T10591107  RH  069%=      5-min Rain = 0
KTH1 121410Z 11002KT M06/M11 A3042 RMK A01 T10601107  RH  069%=      5-min Rain = 0
KTH1 121411Z 11002KT M06/M11 A3042 RMK A01 T10601108  RH  069%=      5-min Rain = 0
KTH1 121412Z 11002KT M06/M11 A3042 RMK A01 T10601108  RH  069%=      5-min Rain = 0
KTH1 121413Z 10001KT M06/M11 A3042 RMK A01 T10591107  RH  069%=      5-min Rain = 0
KTH1 121414Z 09001KT M06/M11 A3042 RMK A01 T10591107  RH  069%=      5-min Rain = 0
KTH1 121415Z 09001KT M06/M11 A3042 RMK A01 T10581106  RH  069%=      5-min Rain = 0
KTH1 121416Z 07001KT M06/M11 A3042 RMK A01 T10571105  RH  069%=      5-min Rain = 0
KTH1 121417Z 07001KT M06/M11 A3042 RMK A01 T10561105  RH  068%=      5-min Rain = 0
KTH1 121418Z 05001KT M06/M11 A3042 RMK A01 T10561107  RH  067%=      5-min Rain = 0
KTH1 121419Z 04001KT M06/M11 A3042 RMK A01 T10561106  RH  068%=      5-min Rain = 0
KTH1 121420Z 04002KT M06/M11 A3042 RMK A01 T10551106  RH  068%=      5-min Rain = 0
KTH1 121421Z 05002KT M06/M11 A3042 RMK A01 T10551106  RH  067%=      5-min Rain = 0
KTH1 121422Z 07002KT M06/M11 A3042 RMK A01 T10551105  RH  068%=      5-min Rain = 0
KTH1 121423Z 06001KT M05/M10 A3042 RMK A01 T10531103  RH  068%=      5-min Rain = 0
KTH1 121424Z 05002KT M05/M10 A3042 RMK A01 T10521102  RH  068%=      5-min Rain = 0
KTH1 121425Z 06002KT M05/M10 A3043 RMK A01 T10511103  RH  067%=      5-min Rain = 0
KTH1 121426Z 04003KT M05/M10 A3043 RMK A01 T10491102  RH  067%=      5-min Rain = 0
KTH1 121427Z 04003KT M05/M10 A3043 RMK A01 T10481102  RH  066%=      5-min Rain = 0
KTH1 121428Z 04003KT M05/M10 A3043 RMK A01 T10481101  RH  067%=      5-min Rain = 0
KTH1 121429Z 04003KT M05/M10 A3042 RMK A01 T10491102  RH  066%=      5-min Rain = 0
KTH1 121430Z 05003KT M05/M10 A3042 RMK A01 T10491102  RH  066%=      5-min Rain = 0
KTH1 121431Z 04004KT M05/M10 A3042 RMK A01 T10481101  RH  067%=      5-min Rain = 0
KTH1 121432Z 05004KT M05/M10 A3042 RMK A01 T10481103  RH  066%=      5-min Rain = 0
KTH1 121433Z 06002KT M05/M10 A3042 RMK A01 T10471101  RH  066%=      5-min Rain = 0
KTH1 121434Z 07004KT M05/M10 A3042 RMK A01 T10461101  RH  065%=      5-min Rain = 0
KTH1 121435Z 08004KT M05/M10 A3042 RMK A01 T10461102  RH  065%=      5-min Rain = 0
KTH1 121436Z 08004KT M05/M10 A3043 RMK A01 T10451101  RH  065%=      5-min Rain = 0
KTH1 121437Z 09003KT M05/M10 A3043 RMK A01 T10451102  RH  064%=      5-min Rain = 0
KTH1 121438Z 07003KT M05/M10 A3043 RMK A01 T10451101  RH  065%=      5-min Rain = 0
KTH1 121439Z 07003KT M04/M10 A3043 RMK A01 T10441100  RH  065%=      5-min Rain = 0
KTH1 121440Z 07004KT M04/M10 A3043 RMK A01 T10431100  RH  065%=      5-min Rain = 0
KTH1 121441Z 06004KT M04/M10 A3043 RMK A01 T10421097  RH  065%=      5-min Rain = 0
KTH1 121442Z 06004KT M04/M10 A3043 RMK A01 T10401097  RH  065%=      5-min Rain = 0
KTH1 121443Z 07004KT M04/M10 A3043 RMK A01 T10391097  RH  064%=      5-min Rain = 0
KTH1 121444Z 06004KT M04/M10 A3043 RMK A01 T10381095  RH  064%=      5-min Rain = 0
KTH1 121445Z 07005KT M04/M09 A3043 RMK A01 T10361094  RH  064%=      5-min Rain = 0
KTH1 121446Z 07005KT M04/M10 A3043 RMK A01 T10351095  RH  063%=      5-min Rain = 0
KTH1 121447Z 06004KT M03/M10 A3043 RMK A01 T10341095  RH  063%=      5-min Rain = 0
KTH1 121448Z 06004KT M03/M10 A3043 RMK A01 T10331095  RH  063%=      5-min Rain = 0
KTH1 121449Z 04004KT M03/M10 A3043 RMK A01 T10331095  RH  062%=      5-min Rain = 0
KTH1 121450Z 06005KT M03/M10 A3043 RMK A01 T10321096  RH  062%=      5-min Rain = 0
KTH1 121451Z 06004KT M03/M10 A3043 RMK A01 T10321095  RH  062%=      5-min Rain = 0
KTH1 121452Z 07004KT M03/M09 A3043 RMK A01 T10311094  RH  062%=      5-min Rain = 0
KTH1 121453Z 07005KT M03/M09 A3043 RMK A01 T10301094  RH  061%=      5-min Rain = 0
KTH1 121454Z 07003KT M03/M10 A3044 RMK A01 T10291095  RH  061%=      5-min Rain = 0
KTH1 121455Z 09004KT M03/M09 A3044 RMK A01 T10291094  RH  061%=      5-min Rain = 0
KTH1 121456Z 09005KT M03/M10 A3044 RMK A01 T10281095  RH  060%=      5-min Rain = 0
KTH1 121457Z 08004KT M03/M10 A3044 RMK A01 T10281095  RH  060%=      5-min Rain = 0
KTH1 121458Z 08004KT M03/M09 A3044 RMK A01 T10271093  RH  061%=      5-min Rain = 0
KTH1 121459Z 07004KT M03/M09 A3044 RMK A01 T10251092  RH  060%=      5-min Rain = 0
KTH1 121500Z 08004KT M02/M09 A3044 RMK A01 T10241093  RH  059%=      5-min Rain = 0
KTH1 121501Z 08004KT M02/M09 A3044 RMK A01 T10241093  RH  059%=      5-min Rain = 0
KTH1 121502Z 09005KT M02/M09 A3044 RMK A01 T10241093  RH  059%=      5-min Rain = 0
KTH1 121503Z 08005KT M02/M09 A3044 RMK A01 T10231093  RH  059%=      5-min Rain = 0
KTH1 121504Z 09006KT M02/M09 A3044 RMK A01 T10221092  RH  059%=      5-min Rain = 0
KTH1 121505Z 09008KT M02/M09 A3044 RMK A01 T10221093  RH  058%=      5-min Rain = 0
KTH1 121506Z 09006KT M02/M09 A3044 RMK A01 T10221094  RH  058%=      5-min Rain = 0
KTH1 121507Z 10008KT M02/M09 A3044 RMK A01 T10221093  RH  059%=      5-min Rain = 0
KTH1 121508Z 09007KT M02/M09 A3044 RMK A01 T10221093  RH  058%=      5-min Rain = 0
KTH1 121509Z 09007KT M02/M09 A3044 RMK A01 T10231093  RH  058%=      5-min Rain = 0
KTH1 121510Z 08009KT M02/M09 A3044 RMK A01 T10231093  RH  059%=      5-min Rain = 0
KTH1 121511Z 08007KT M02/M09 A3044 RMK A01 T10231093  RH  059%=      5-min Rain = 0
KTH1 121512Z 08007KT M02/M09 A3044 RMK A01 T10221093  RH  059%=      5-min Rain = 0
KTH1 121513Z 09008KT M02/M09 A3044 RMK A01 T10221093  RH  058%=      5-min Rain = 0
KTH1 121514Z 09008KT M02/M09 A3044 RMK A01 T10211091  RH  059%=      5-min Rain = 0
KTH1 121515Z 08009KT M02/M09 A3044 RMK A01 T10201091  RH  058%=      5-min Rain = 0
KTH1 121516Z 09007KT M02/M09 A3044 RMK A01 T10211093  RH  058%=      5-min Rain = 0
KTH1 121517Z 10006KT M02/M09 A3044 RMK A01 T10201092  RH  058%=      5-min Rain = 0
KTH1 121518Z 09006KT M02/M09 A3045 RMK A01 T10191090  RH  058%=      5-min Rain = 0
KTH1 121519Z 07004KT M02/M09 A3045 RMK A01 T10171090  RH  058%=      5-min Rain = 0
KTH1 121520Z 07004KT M02/M09 A3045 RMK A01 T10171091  RH  057%=      5-min Rain = 0
KTH1 121521Z 07006KT M02/M09 A3045 RMK A01 T10171090  RH  057%=      5-min Rain = 0
KTH1 121522Z 09006KT M01/M09 A3045 RMK A01 T10141088  RH  057%=      5-min Rain = 0
KTH1 121523Z 09007KT M01/M09 A3044 RMK A01 T10131090  RH  056%=      5-min Rain = 0
KTH1 121524Z 09006KT M01/M09 A3044 RMK A01 T10141091  RH  056%=      5-min Rain = 0
KTH1 121525Z 08007KT M01/M09 A3044 RMK A01 T10131090  RH  056%=      5-min Rain = 0
KTH1 121526Z 07008KT M01/M09 A3044 RMK A01 T10131091  RH  056%=      5-min Rain = 0
KTH1 121527Z 08007KT M01/M09 A3044 RMK A01 T10121090  RH  056%=      5-min Rain = 0
KTH1 121528Z 08010KT M01/M09 A3044 RMK A01 T10121091  RH  055%=      5-min Rain = 0
KTH1 121529Z 08008KT M01/M09 A3044 RMK A01 T10121092  RH  055%=      5-min Rain = 0
KTH1 121530Z 09008KT M01/M09 A3044 RMK A01 T10121092  RH  055%=      5-min Rain = 0
KTH1 121531Z 07007KT M01/M09 A3044 RMK A01 T10131092  RH  055%=      5-min Rain = 0
KTH1 121532Z 08006KT M01/M09 A3044 RMK A01 T10111091  RH  055%=      5-min Rain = 0
KTH1 121533Z 08009KT M01/M09 A3044 RMK A01 T10101090  RH  054%=      5-min Rain = 0
KTH1 121534Z 07009KT M01/M09 A3044 RMK A01 T10101092  RH  054%=      5-min Rain = 0
KTH1 121535Z 08007KT M01/M09 A3044 RMK A01 T10111093  RH  054%=      5-min Rain = 0
KTH1 121536Z 09008KT M01/M09 A3044 RMK A01 T10111092  RH  054%=      5-min Rain = 0
KTH1 121537Z 09007KT M01/M09 A3044 RMK A01 T10101091  RH  054%=      5-min Rain = 0
KTH1 121538Z 08007KT M01/M09 A3044 RMK A01 T10091091  RH  054%=      5-min Rain = 0
KTH1 121539Z 08005KT M01/M09 A3044 RMK A01 T10071090  RH  054%=      5-min Rain = 0
KTH1 121540Z 08008KT M01/M09 A3044 RMK A01 T10051089  RH  053%=      5-min Rain = 0
KTH1 121541Z 08007KT M00/M09 A3044 RMK A01 T10041091  RH  052%=      5-min Rain = 0
KTH1 121542Z 09006KT M01/M09 A3044 RMK A01 T10051092  RH  052%=      5-min Rain = 0
KTH1 121543Z 10007KT M00/M09 A3044 RMK A01 T10041091  RH  052%=      5-min Rain = 0
KTH1 121544Z 10007KT M00/M09 A3044 RMK A01 T10041093  RH  051%=      5-min Rain = 0
KTH1 121545Z 10005KT M01/M09 A3045 RMK A01 T10051093  RH  051%=      5-min Rain = 0
KTH1 121546Z 10004KT M01/M09 A3045 RMK A01 T10051092  RH  052%=      5-min Rain = 0
KTH1 121547Z 09006KT M00/M09 A3044 RMK A01 T10021090  RH  052%=      5-min Rain = 0
KTH1 121548Z 08004KT M00/M09 A3044 RMK A01 T10011090  RH  051%=      5-min Rain = 0
KTH1 121549Z 09006KT 00/09 A3044 RMK A01 T00-00-89  RH  051%=      5-min Rain = 0
KTH1 121550Z 09005KT 00/M09 A3044 RMK A01 T00021089  RH  051%=      5-min Rain = 0
KTH1 121551Z 09005KT 00/M09 A3044 RMK A01 T00031091  RH  050%=      5-min Rain = 0
KTH1 121552Z 07007KT 00/M09 A3044 RMK A01 T00031090  RH  049%=      5-min Rain = 0
KTH1 121553Z 09007KT 01/M09 A3044 RMK A01 T00051088  RH  050%=      5-min Rain = 0
KTH1 121554Z 09008KT 01/M09 A3044 RMK A01 T00061091  RH  048%=      5-min Rain = 0
KTH1 121555Z 09006KT 01/M09 A3044 RMK A01 T00051094  RH  048%=      5-min Rain = 0
KTH1 121556Z 09008KT 00/M09 A3044 RMK A01 T00031094  RH  048%=      5-min Rain = 0
KTH1 121557Z 09007KT 00/M09 A3044 RMK A01 T00031093  RH  049%=      5-min Rain = 0
KTH1 121558Z 08007KT 00/M09 A3043 RMK A01 T00031093  RH  049%=      5-min Rain = 0
KTH1 121559Z 09007KT 00/M09 A3043 RMK A01 T00031092  RH  049%=      5-min Rain = 0
KTH1 121600Z 09006KT 00/M09 A3043 RMK A01 T00041091  RH  049%=      5-min Rain = 0
KTH1 121601Z 09006KT 00/M09 A3043 RMK A01 T00041092  RH  049%=      5-min Rain = 0
KTH1 121602Z 09006KT 00/M09 A3043 RMK A01 T00041091  RH  049%=      5-min Rain = 0
KTH1 121603Z 09008KT 01/M09 A3043 RMK A01 T00051091  RH  049%=      5-min Rain = 0
KTH1 121604Z 10007KT 01/M09 A3043 RMK A01 T00061091  RH  048%=      5-min Rain = 0
KTH1 121605Z 08006KT 01/M09 A3043 RMK A01 T00061092  RH  048%=      5-min Rain = 0
KTH1 121606Z 08007KT 01/M09 A3043 RMK A01 T00071092  RH  047%=      5-min Rain = 0
KTH1 121607Z 09008KT 01/M09 A3043 RMK A01 T00071092  RH  048%=      5-min Rain = 0
KTH1 121608Z 10008KT 01/M09 A3043 RMK A01 T00051093  RH  048%=      5-min Rain = 0
KTH1 121609Z 09008KT 00/M10 A3043 RMK A01 T00031095  RH  048%=      5-min Rain = 0
KTH1 121610Z 09005KT 00/M09 A3043 RMK A01 T00011094  RH  049%=      5-min Rain = 0
KTH1 121611Z 08007KT 00/M09 A3043 RMK A01 T00011094  RH  049%=      5-min Rain = 0
KTH1 121612Z 10008KT 00/M09 A3043 RMK A01 T00011094  RH  049%=      5-min Rain = 0
KTH1 121613Z 09007KT 00/M10 A3043 RMK A01 T00011095  RH  049%=      5-min Rain = 0
KTH1 121614Z 09008KT 00/M09 A3043 RMK A01 T00021093  RH  049%=      5-min Rain = 0
KTH1 121615Z 06007KT 00/M09 A3043 RMK A01 T00031092  RH  049%=      5-min Rain = 0
KTH1 121616Z 05008KT 00/M09 A3043 RMK A01 T00041093  RH  048%=      5-min Rain = 0
KTH1 121617Z 06006KT 00/M10 A3044 RMK A01 T00041095  RH  048%=      5-min Rain = 0
KTH1 121618Z 06006KT 00/M10 A3044 RMK A01 T00031095  RH  048%=      5-min Rain = 0
KTH1 121619Z 07006KT 00/M10 A3044 RMK A01 T00021095  RH  048%=      5-min Rain = 0
KTH1 121620Z 07006KT 00/10 A3044 RMK A01 T00000-96  RH  048%=      5-min Rain = 0
KTH1 121621Z 07008KT 00/10 A3044 RMK A01 T00-00-95  RH  049%=      5-min Rain = 0
KTH1 121622Z 08005KT M00/M10 A3044 RMK A01 T10021096  RH  049%=      5-min Rain = 0
KTH1 121623Z 07004KT M00/M10 A3044 RMK A01 T10041096  RH  050%=      5-min Rain = 0
KTH1 121624Z 06005KT M01/M10 A3044 RMK A01 T10051096  RH  050%=      5-min Rain = 0
KTH1 121625Z 05005KT M00/M10 A3044 RMK A01 T10041095  RH  050%=      5-min Rain = 0
KTH1 121626Z 04006KT M00/M09 A3044 RMK A01 T10031094  RH  050%=      5-min Rain = 0
KTH1 121627Z 06005KT M00/M09 A3044 RMK A01 T10031094  RH  050%=      5-min Rain = 0
KTH1 121628Z 06004KT M00/M09 A3044 RMK A01 T10021092  RH  050%=      5-min Rain = 0
KTH1 121629Z 07006KT 00/M09 A3044 RMK A01 T00021089  RH  051%=      5-min Rain = 0
KTH1 121630Z 07006KT 00/M09 A3044 RMK A01 T00031091  RH  049%=      5-min Rain = 0
KTH1 121631Z 06005KT 00/M09 A3044 RMK A01 T00031092  RH  049%=      5-min Rain = 0
KTH1 121632Z 08005KT 00/M09 A3044 RMK A01 T00021093  RH  049%=      5-min Rain = 0
KTH1 121633Z 06004KT 00/M09 A3044 RMK A01 T00011093  RH  049%=      5-min Rain = 0
KTH1 121634Z 05004KT 00/M09 A3044 RMK A01 T00011092  RH  050%=      5-min Rain = 0
KTH1 121635Z 05006KT 00/M09 A3044 RMK A01 T00021092  RH  049%=      5-min Rain = 0
KTH1 121636Z 05005KT 00/M09 A3044 RMK A01 T00021093  RH  049%=      5-min Rain = 0
KTH1 121637Z 07004KT 00/M09 A3044 RMK A01 T00021092  RH  049%=      5-min Rain = 0
KTH1 121638Z 06006KT 00/M09 A3044 RMK A01 T00031091  RH  049%=      5-min Rain = 0
KTH1 121639Z 05007KT 00/M09 A3044 RMK A01 T00031092  RH  049%=      5-min Rain = 0
KTH1 121640Z 05006KT 00/M09 A3044 RMK A01 T00031092  RH  049%=      5-min Rain = 0
KTH1 121641Z 05005KT 00/M09 A3043 RMK A01 T00021092  RH  049%=      5-min Rain = 0
KTH1 121642Z 05005KT 00/M09 A3043 RMK A01 T00031091  RH  049%=      5-min Rain = 0
KTH1 121643Z 05005KT 00/M09 A3043 RMK A01 T00021092  RH  049%=      5-min Rain = 0
KTH1 121644Z 04007KT 00/M09 A3043 RMK A01 T00031092  RH  049%=      5-min Rain = 0
KTH1 121645Z 06006KT 00/M09 A3043 RMK A01 T00031092  RH  049%=      5-min Rain = 0
KTH1 121646Z 05006KT 00/M09 A3043 RMK A01 T00041090  RH  049%=      5-min Rain = 0
KTH1 121647Z 05006KT 01/M09 A3043 RMK A01 T00061090  RH  048%=      5-min Rain = 0
KTH1 121648Z 05005KT 01/M09 A3043 RMK A01 T00061092  RH  048%=      5-min Rain = 0
KTH1 121649Z 07004KT 01/M09 A3043 RMK A01 T00061091  RH  048%=      5-min Rain = 0
KTH1 121650Z 06005KT 01/M09 A3043 RMK A01 T00071089  RH  049%=      5-min Rain = 0
KTH1 121651Z 08004KT 01/M09 A3043 RMK A01 T00071090  RH  048%=      5-min Rain = 0
KTH1 121652Z 06004KT 01/M09 A3043 RMK A01 T00081089  RH  048%=      5-min Rain = 0
KTH1 121653Z 05005KT 01/M09 A3043 RMK A01 T00111086  RH  048%=      5-min Rain = 0
KTH1 121654Z 07005KT 01/M09 A3043 RMK A01 T00121089  RH  047%=      5-min Rain = 0
KTH1 121655Z 06006KT 01/M09 A3043 RMK A01 T00111089  RH  047%=      5-min Rain = 0
KTH1 121656Z 06006KT 01/M09 A3043 RMK A01 T00111090  RH  047%=      5-min Rain = 0
KTH1 121657Z 07004KT 01/M09 A3043 RMK A01 T00111089  RH  047%=      5-min Rain = 0
KTH1 121658Z 04004KT 01/M09 A3043 RMK A01 T00111089  RH  048%=      5-min Rain = 0
KTH1 121659Z 03003KT 01/M09 A3043 RMK A01 T00111089  RH  047%=      5-min Rain = 0
KTH1 121700Z 06005KT 01/M09 A3043 RMK A01 T00121087  RH  048%=      5-min Rain = 0
KTH1 121701Z 04006KT 01/M09 A3043 RMK A01 T00131087  RH  047%=      5-min Rain = 0
KTH1 121702Z 04007KT 01/M09 A3043 RMK A01 T00141087  RH  047%=      5-min Rain = 0
KTH1 121703Z 04007KT 01/M09 A3042 RMK A01 T00121090  RH  047%=      5-min Rain = 0
KTH1 121704Z 05008G13KT 01/M09 A3042 RMK A01 T00101090  RH  047%=      5-min Rain = 0
KTH1 121705Z 05009KT 01/M09 A3042 RMK A01 T00101089  RH  048%=      5-min Rain = 0
KTH1 121706Z 07009KT 01/M09 A3042 RMK A01 T00111089  RH  047%=      5-min Rain = 0
KTH1 121707Z 08008KT 01/M09 A3041 RMK A01 T00111090  RH  047%=      5-min Rain = 0
KTH1 121708Z 06008KT 01/M09 A3042 RMK A01 T00111089  RH  047%=      5-min Rain = 0
KTH1 121709Z 04006KT 01/M09 A3042 RMK A01 T00121088  RH  047%=      5-min Rain = 0
KTH1 121710Z 04006KT 01/M09 A3042 RMK A01 T00131090  RH  046%=      5-min Rain = 0
KTH1 121711Z 05010KT 01/M09 A3042 RMK A01 T00131091  RH  046%=      5-min Rain = 0
KTH1 121712Z 06008KT 01/M09 A3042 RMK A01 T00141091  RH  046%=      5-min Rain = 0
KTH1 121713Z 05006KT 01/M09 A3042 RMK A01 T00141092  RH  045%=      5-min Rain = 0
KTH1 121714Z 03005KT 01/M09 A3042 RMK A01 T00141092  RH  045%=      5-min Rain = 0
KTH1 121715Z 03007KT 01/M09 A3042 RMK A01 T00141092  RH  045%=      5-min Rain = 0
KTH1 121716Z 03007KT 01/M09 A3042 RMK A01 T00141091  RH  045%=      5-min Rain = 0
KTH1 121717Z 03007KT 02/M09 A3042 RMK A01 T00161090  RH  045%=      5-min Rain = 0
KTH1 121718Z 06005KT 02/M09 A3042 RMK A01 T00161092  RH  045%=      5-min Rain = 0
KTH1 121719Z 07006KT 02/M09 A3042 RMK A01 T00161091  RH  045%=      5-min Rain = 0
KTH1 121720Z 08006KT 02/M09 A3042 RMK A01 T00151091  RH  045%=      5-min Rain = 0
KTH1 121721Z 07007KT 02/M09 A3042 RMK A01 T00171090  RH  045%=      5-min Rain = 0
KTH1 121722Z 04005KT 02/M09 A3042 RMK A01 T00181089  RH  045%=      5-min Rain = 0
KTH1 121723Z 05007KT 02/M09 A3042 RMK A01 T00181090  RH  044%=      5-min Rain = 0
KTH1 121724Z 07007KT 02/M09 A3042 RMK A01 T00181091  RH  044%=      5-min Rain = 0
KTH1 121725Z 06006KT 02/M09 A3042 RMK A01 T00171092  RH  044%=      5-min Rain = 0
KTH1 121726Z 05006KT 02/M09 A3042 RMK A01 T00171090  RH  045%=      5-min Rain = 0
KTH1 121727Z 04008KT 02/M09 A3042 RMK A01 T00191090  RH  044%=      5-min Rain = 0
KTH1 121728Z 06007KT 02/M09 A3042 RMK A01 T00191090  RH  044%=      5-min Rain = 0
KTH1 121729Z 06006KT 02/M09 A3042 RMK A01 T00211089  RH  044%=      5-min Rain = 0
KTH1 121730Z 06007KT 02/M09 A3042 RMK A01 T00221088  RH  044%=      5-min Rain = 0
KTH1 121731Z 06007KT 03/M09 A3042 RMK A01 T00251087  RH  043%=      5-min Rain = 0
KTH1 121732Z 06006KT 03/M09 A3042 RMK A01 T00261088  RH  043%=      5-min Rain = 0
KTH1 121733Z 08005KT 03/M09 A3042 RMK A01 T00261089  RH  042%=      5-min Rain = 0
KTH1 121734Z 05005KT 03/M09 A3042 RMK A01 T00251090  RH  043%=      5-min Rain = 0
KTH1 121735Z 03005KT 02/M09 A3042 RMK A01 T00241091  RH  042%=      5-min Rain = 0
KTH1 121736Z 03007KT 02/M09 A3042 RMK A01 T00221091  RH  043%=      5-min Rain = 0
KTH1 121737Z 04007KT 02/M09 A3042 RMK A01 T00231091  RH  043%=      5-min Rain = 0
KTH1 121738Z 05005KT 02/M09 A3042 RMK A01 T00221091  RH  043%=      5-min Rain = 0
KTH1 121739Z 04005KT 02/M09 A3042 RMK A01 T00221091  RH  043%=      5-min Rain = 0
KTH1 121740Z 05005KT 02/M09 A3042 RMK A01 T00221091  RH  043%=      5-min Rain = 0
KTH1 121741Z 03002KT 02/M09 A3042 RMK A01 T00211091  RH  043%=      5-min Rain = 0
KTH1 121742Z 06004KT 02/M09 A3042 RMK A01 T00231087  RH  044%=      5-min Rain = 0
KTH1 121743Z 05005KT 03/M09 A3042 RMK A01 T00261087  RH  043%=      5-min Rain = 0
KTH1 121744Z 07007KT 03/M09 A3042 RMK A01 T00281088  RH  042%=      5-min Rain = 0
KTH1 121745Z 06007KT 03/M09 A3042 RMK A01 T00291088  RH  042%=      5-min Rain = 0
KTH1 121746Z 06006KT 03/M09 A3042 RMK A01 T00311087  RH  042%=      5-min Rain = 0
KTH1 121747Z 06006KT 03/M09 A3042 RMK A01 T00321089  RH  041%=      5-min Rain = 0
KTH1 121748Z 05005KT 03/M09 A3042 RMK A01 T00291092  RH  041%=      5-min Rain = 0
KTH1 121749Z 07005KT 03/M09 A3042 RMK A01 T00271091  RH  041%=      5-min Rain = 0
KTH1 121750Z 09007KT 03/M09 A3042 RMK A01 T00271089  RH  042%=      5-min Rain = 0
KTH1 121751Z 09008KT 03/M09 A3042 RMK A01 T00281090  RH  042%=      5-min Rain = 0
KTH1 121752Z 08005KT 03/M09 A3042 RMK A01 T00281090  RH  042%=      5-min Rain = 0
KTH1 121753Z 04004KT 03/M09 A3041 RMK A01 T00291089  RH  042%=      5-min Rain = 0
KTH1 121754Z 04006KT 03/M09 A3041 RMK A01 T00301089  RH  041%=      5-min Rain = 0
KTH1 121755Z 06006KT 03/M09 A3041 RMK A01 T00291091  RH  041%=      5-min Rain = 0
KTH1 121756Z 05006KT 03/M09 A3041 RMK A01 T00291091  RH  041%=      5-min Rain = 0
KTH1 121757Z 03005KT 03/M09 A3041 RMK A01 T00291091  RH  041%=      5-min Rain = 0
KTH1 121758Z 07004KT 03/M09 A3041 RMK A01 T00291090  RH  041%=      5-min Rain = 0
KTH1 121759Z 07005KT 03/M09 A3041 RMK A01 T00301089  RH  041%=      5-min Rain = 0
KTH1 121800Z 08004KT 03/M09 A3041 RMK A01 T00301089  RH  041%=      5-min Rain = 0
KTH1 121801Z 08004KT 03/M09 A3041 RMK A01 T00311088  RH  041%=      5-min Rain = 0
KTH1 121802Z 06006KT 03/M09 A3041 RMK A01 T00311088  RH  041%=      5-min Rain = 0
KTH1 121803Z 05006KT 03/M09 A3041 RMK A01 T00341088  RH  041%=      5-min Rain = 0
KTH1 121804Z 07005KT 03/M09 A3041 RMK A01 T00341089  RH  040%=      5-min Rain = 0
KTH1 121805Z 09004KT 04/M09 A304 RMK A01 T00351087  RH  041%=      5-min Rain = 0
KTH1 121806Z 09003KT 04/M09 A304 RMK A01 T00371086  RH  040%=      5-min Rain = 0
KTH1 121807Z 11002KT 04/M09 A304 RMK A01 T00381087  RH  039%=      5-min Rain = 0
KTH1 121808Z 07004KT 04/M09 A304 RMK A01 T00411085  RH  040%=      5-min Rain = 0
KTH1 121809Z 07007KT 05/M08 A304 RMK A01 T00461080  RH  040%=      5-min Rain = 0
KTH1 121810Z 07007KT 05/M08 A304 RMK A01 T00481082  RH  038%=      5-min Rain = 0
KTH1 121811Z 08006KT 05/M08 A304 RMK A01 T00481084  RH  038%=      5-min Rain = 0
KTH1 121812Z 10007KT 05/M09 A304 RMK A01 T00451088  RH  037%=      5-min Rain = 0
KTH1 121813Z 09005KT 04/M09 A304 RMK A01 T00421089  RH  038%=      5-min Rain = 0
KTH1 121814Z 04007KT 04/M09 A304 RMK A01 T00421087  RH  038%=      5-min Rain = 0
KTH1 121815Z 04007KT 04/M09 A304 RMK A01 T00421089  RH  038%=      5-min Rain = 0
KTH1 121816Z 06005KT 04/M09 A304 RMK A01 T00421088  RH  038%=      5-min Rain = 0
KTH1 121817Z 06007KT 04/M09 A304 RMK A01 T00421087  RH  038%=      5-min Rain = 0
KTH1 121818Z 07006KT 04/M09 A304 RMK A01 T00421088  RH  038%=      5-min Rain = 0
KTH1 121819Z 09005KT 04/M09 A304 RMK A01 T00421089  RH  038%=      5-min Rain = 0
KTH1 121820Z 10004KT 04/M09 A304 RMK A01 T00421089  RH  038%=      5-min Rain = 0
KTH1 121821Z 12003KT 04/M09 A304 RMK A01 T00421089  RH  038%=      5-min Rain = 0
KTH1 121822Z 09001KT 04/M09 A304 RMK A01 T00421087  RH  038%=      5-min Rain = 0
KTH1 121823Z 06005KT 05/M09 A304 RMK A01 T00461085  RH  038%=      5-min Rain = 0
KTH1 121824Z 05007KT 05/M08 A304 RMK A01 T00501083  RH  038%=      5-min Rain = 0
KTH1 121825Z 06005KT 05/M09 A304 RMK A01 T00511086  RH  037%=      5-min Rain = 0
KTH1 121826Z 02005KT 05/M09 A304 RMK A01 T00491088  RH  037%=      5-min Rain = 0
KTH1 121827Z 03005G10KT 05/M09 A304 RMK A01 T00491087  RH  037%=      5-min Rain = 0
KTH1 121828Z 05007KT 05/M09 A3039 RMK A01 T00491086  RH  037%=      5-min Rain = 0
KTH1 121829Z 05006KT 05/M08 A3039 RMK A01 T00531082  RH  037%=      5-min Rain = 0
KTH1 121830Z 06007KT 06/M08 A3039 RMK A01 T00551083  RH  036%=      5-min Rain = 0
KTH1 121831Z 05008KT 05/M09 A3039 RMK A01 T00541086  RH  036%=      5-min Rain = 0
KTH1 121832Z 05007KT 05/M09 A3039 RMK A01 T00511088  RH  036%=      5-min Rain = 0
KTH1 121833Z 04004KT 05/M09 A3039 RMK A01 T00491087  RH  037%=      5-min Rain = 0
KTH1 121834Z 03004KT 05/M09 A3039 RMK A01 T00491087  RH  037%=      5-min Rain = 0
KTH1 121835Z 07004KT 05/M09 A3039 RMK A01 T00491087  RH  037%=      5-min Rain = 0
KTH1 121836Z 09005KT 05/M08 A3039 RMK A01 T00511084  RH  037%=      5-min Rain = 0
KTH1 121837Z 06005KT 05/M08 A3039 RMK A01 T00531084  RH  037%=      5-min Rain = 0
KTH1 121838Z 03005KT 05/M09 A3039 RMK A01 T00531085  RH  036%=      5-min Rain = 0
KTH1 121839Z 02003KT 05/M09 A3039 RMK A01 T00511087  RH  036%=      5-min Rain = 0
KTH1 121840Z 04003KT 05/M09 A3039 RMK A01 T00501087  RH  036%=      5-min Rain = 0
KTH1 121841Z 08003KT 05/M09 A3039 RMK A01 T00491089  RH  036%=      5-min Rain = 0
KTH1 121842Z 09003KT 05/M09 A3039 RMK A01 T00471089  RH  037%=      5-min Rain = 0
KTH1 121843Z 09004KT 05/M09 A3039 RMK A01 T00481087  RH  037%=      5-min Rain = 0
KTH1 121844Z 09005KT 05/M09 A3039 RMK A01 T00501086  RH  037%=      5-min Rain = 0
KTH1 121845Z 08007KT 05/M09 A3039 RMK A01 T00521085  RH  037%=      5-min Rain = 0
KTH1 121846Z 08006KT 05/M09 A3039 RMK A01 T00541085  RH  036%=      5-min Rain = 0
KTH1 121847Z 04007KT 05/M09 A3038 RMK A01 T00541085  RH  036%=      5-min Rain = 0
KTH1 121848Z 03007KT 06/M09 A3038 RMK A01 T00551085  RH  036%=      5-min Rain = 0
KTH1 121849Z 07004KT 06/M08 A3038 RMK A01 T00551084  RH  036%=      5-min Rain = 0
KTH1 121850Z 05004KT 06/M08 A3038 RMK A01 T00591081  RH  036%=      5-min Rain = 0
KTH1 121851Z 08003KT 06/M09 A3038 RMK A01 T00591086  RH  035%=      5-min Rain = 0
KTH1 121852Z 08008KT 06/M09 A3038 RMK A01 T00571086  RH  035%=      5-min Rain = 0
KTH1 121853Z 09007KT 06/M08 A3038 RMK A01 T00591082  RH  036%=      5-min Rain = 0
KTH1 121854Z 10005KT 06/M09 A3038 RMK A01 T00591085  RH  035%=      5-min Rain = 0
KTH1 121855Z 10004KT 06/M08 A3038 RMK A01 T00581084  RH  035%=      5-min Rain = 0
KTH1 121856Z 05003KT 06/M09 A3038 RMK A01 T00591085  RH  035%=      5-min Rain = 0
KTH1 121857Z 05003KT 06/M09 A3038 RMK A01 T00561088  RH  035%=      5-min Rain = 0
KTH1 121858Z 35001KT 05/M09 A3038 RMK A01 T00541089  RH  035%=      5-min Rain = 0
KTH1 121859Z 11003KT 05/M09 A3038 RMK A01 T00531088  RH  035%=      5-min Rain = 0
KTH1 121900Z 10003KT 05/M09 A3038 RMK A01 T00541087  RH  035%=      5-min Rain = 0
KTH1 121901Z 08004KT 06/M08 A3038 RMK A01 T00571083  RH  036%=      5-min Rain = 0
KTH1 121902Z 08005KT 06/M08 A3038 RMK A01 T00591083  RH  035%=      5-min Rain = 0
KTH1 121903Z 12005KT 06/M08 A3038 RMK A01 T00611083  RH  035%=      5-min Rain = 0
KTH1 121904Z 16005KT 06/M09 A3038 RMK A01 T00601086  RH  034%=      5-min Rain = 0
KTH1 121905Z 27003KT 06/M09 A3037 RMK A01 T00581087  RH  034%=      5-min Rain = 0
KTH1 121906Z 03005KT 06/M09 A3037 RMK A01 T00581086  RH  035%=      5-min Rain = 0
KTH1 121907Z 03004KT 06/M09 A3037 RMK A01 T00581085  RH  035%=      5-min Rain = 0
KTH1 121908Z 05007KT 06/M08 A3037 RMK A01 T00611082  RH  035%=      5-min Rain = 0
KTH1 121909Z 06009KT 06/M08 A3037 RMK A01 T00641082  RH  034%=      5-min Rain = 0
KTH1 121910Z 06006KT 07/M08 A3037 RMK A01 T00661081  RH  034%=      5-min Rain = 0
KTH1 121911Z 08006KT 07/M08 A3037 RMK A01 T00661083  RH  034%=      5-min Rain = 0
KTH1 121912Z 11008KT 07/M08 A3037 RMK A01 T00651083  RH  034%=      5-min Rain = 0
KTH1 121913Z 10003KT 07/M08 A3037 RMK A01 T00651083  RH  034%=      5-min Rain = 0
KTH1 121914Z 09004KT 07/M08 A3037 RMK A01 T00651084  RH  034%=      5-min Rain = 0
KTH1 121915Z 06002KT 07/M09 A3037 RMK A01 T00651085  RH  033%=      5-min Rain = 0
KTH1 121916Z 08004KT 06/M09 A3037 RMK A01 T00641087  RH  033%=      5-min Rain = 0
KTH1 121917Z 07004KT 06/M09 A3036 RMK A01 T00631085  RH  034%=      5-min Rain = 0
KTH1 121918Z 06002KT 06/M09 A3036 RMK A01 T00621085  RH  034%=      5-min Rain = 0
KTH1 121919Z 06004KT 06/M08 A3036 RMK A01 T00631083  RH  034%=      5-min Rain = 0
KTH1 121920Z 05004KT 07/M08 A3036 RMK A01 T00661082  RH  034%=      5-min Rain = 0
KTH1 121921Z 06006KT 07/M08 A3036 RMK A01 T00711078  RH  034%=      5-min Rain = 0
KTH1 121922Z 07004KT 07/M08 A3036 RMK A01 T00731079  RH  033%=      5-min Rain = 0
KTH1 121923Z 12002KT 08/M08 A3036 RMK A01 T00751079  RH  033%=      5-min Rain = 0
KTH1 121924Z 08002G7KT 08/M08 A3036 RMK A01 T00761080  RH  032%=      5-min Rain = 0
KTH1 121925Z 05007KT 08/M08 A3036 RMK A01 T00781080  RH  032%=      5-min Rain = 0
KTH1 121926Z 07007KT 08/M08 A3036 RMK A01 T00761082  RH  032%=      5-min Rain = 0
KTH1 121927Z 08003KT 07/M09 A3036 RMK A01 T00721085  RH  032%=      5-min Rain = 0
KTH1 121928Z 07006KT 07/M08 A3036 RMK A01 T00711081  RH  033%=      5-min Rain = 0
KTH1 121929Z 08006KT 07/M08 A3036 RMK A01 T00711083  RH  032%=      5-min Rain = 0
KTH1 121930Z 09004KT 07/M08 A3035 RMK A01 T00701083  RH  033%=      5-min Rain = 0
KTH1 121931Z 10004KT 07/M08 A3035 RMK A01 T00691083  RH  033%=      5-min Rain = 0
KTH1 121932Z 08003KT 07/M08 A3035 RMK A01 T00691083  RH  033%=      5-min Rain = 0
KTH1 121933Z 05007KT 07/M08 A3035 RMK A01 T00711079  RH  034%=      5-min Rain = 0
KTH1 121934Z 04005KT 08/M08 A3035 RMK A01 T00751079  RH  033%=      5-min Rain = 0
KTH1 121935Z 06003KT 07/M08 A3035 RMK A01 T00741082  RH  032%=      5-min Rain = 0
KTH1 121936Z 04004KT 07/M08 A3035 RMK A01 T00731083  RH  032%=      5-min Rain = 0
KTH1 121937Z 05005KT 07/M08 A3035 RMK A01 T00741080  RH  033%=      5-min Rain = 0
KTH1 121938Z 06006KT 08/M08 A3035 RMK A01 T00791076  RH  033%=      5-min Rain = 0
KTH1 121939Z 04006KT 08/M08 A3035 RMK A01 T00821076  RH  032%=      5-min Rain = 0
KTH1 121940Z 03004KT 08/M08 A3035 RMK A01 T00821080  RH  031%=      5-min Rain = 0
KTH1 121941Z 03005KT 08/M08 A3034 RMK A01 T00821080  RH  031%=      5-min Rain = 0
KTH1 121942Z 02005KT 08/M08 A3034 RMK A01 T00771084  RH  031%=      5-min Rain = 0
KTH1 121943Z 03003KT 07/M09 A3034 RMK A01 T00741085  RH  031%=      5-min Rain = 0
KTH1 121944Z 06004G9KT 07/M08 A3034 RMK A01 T00731083  RH  032%=      5-min Rain = 0
KTH1 121945Z 04005KT 07/M08 A3034 RMK A01 T00731082  RH  032%=      5-min Rain = 0
KTH1 121946Z 05006KT 08/M08 A3034 RMK A01 T00761080  RH  032%=      5-min Rain = 0
KTH1 121947Z 07007KT 08/M08 A3034 RMK A01 T00771080  RH  032%=      5-min Rain = 0
KTH1 121948Z 08007KT 08/M08 A3034 RMK A01 T00771081  RH  032%=      5-min Rain = 0
KTH1 121949Z 07009KT 08/M08 A3033 RMK A01 T00761080  RH  032%=      5-min Rain = 0
KTH1 121950Z 07009KT 08/M08 A3033 RMK A01 T00771079  RH  032%=      5-min Rain = 0
KTH1 121951Z 07006KT 08/M08 A3033 RMK A01 T00791079  RH  032%=      5-min Rain = 0
KTH1 121952Z 09005KT 08/M08 A3033 RMK A01 T00811078  RH  032%=      5-min Rain = 0
KTH1 121953Z 08005KT 08/M08 A3033 RMK A01 T00811079  RH  031%=      5-min Rain = 0
KTH1 121954Z 08005KT 08/M08 A3033 RMK A01 T00801080  RH  031%=      5-min Rain = 0
KTH1 121955Z 09006KT 08/M08 A3033 RMK A01 T00801078  RH  032%=      5-min Rain = 0
KTH1 121956Z 07006KT 08/M08 A3033 RMK A01 T00811077  RH  032%=      5-min Rain = 0
KTH1 121957Z 05006KT 09/M08 A3033 RMK A01 T00851076  RH  031%=      5-min Rain = 0
KTH1 121958Z 02004KT 09/M08 A3033 RMK A01 T00851079  RH  031%=      5-min Rain = 0
KTH1 121959Z 04003KT 08/M08 A3033 RMK A01 T00811083  RH  030%=      5-min Rain = 0
KTH1 122000Z 05006KT 08/M08 A3033 RMK A01 T00791082  RH  031%=      5-min Rain = 0
KTH1 122001Z 06008KT 08/M08 A3033 RMK A01 T00811077  RH  032%=      5-min Rain = 0
KTH1 122002Z 06009KT 09/M08 A3033 RMK A01 T00851076  RH  031%=      5-min Rain = 0
KTH1 122003Z 06009KT 09/M08 A3032 RMK A01 T00871078  RH  030%=      5-min Rain = 0
KTH1 122004Z 06009KT 09/M08 A3032 RMK A01 T00861079  RH  030%=      5-min Rain = 0
KTH1 122005Z 06007KT 09/M08 A3032 RMK A01 T00851079  RH  030%=      5-min Rain = 0
KTH1 122006Z 05009KT 09/M08 A3032 RMK A01 T00851078  RH  031%=      5-min Rain = 0
KTH1 122007Z 04007KT 09/M08 A3032 RMK A01 T00851079  RH  030%=      5-min Rain = 0
KTH1 122008Z 04004KT 08/M08 A3032 RMK A01 T00831080  RH  031%=      5-min Rain = 0
KTH1 122009Z 05009KT 08/M08 A3032 RMK A01 T00821080  RH  031%=      5-min Rain = 0
KTH1 122010Z 04007KT 08/M08 A3032 RMK A01 T00831079  RH  031%=      5-min Rain = 0
KTH1 122011Z 05007KT 08/M08 A3032 RMK A01 T00821080  RH  031%=      5-min Rain = 0
KTH1 122012Z 05007KT 08/M08 A3032 RMK A01 T00831079  RH  031%=      5-min Rain = 0
KTH1 122013Z 05008KT 08/M08 A3032 RMK A01 T00841079  RH  031%=      5-min Rain = 0
KTH1 122014Z 06009KT 09/M08 A3032 RMK A01 T00851078  RH  031%=      5-min Rain = 0
KTH1 122015Z 08009KT 09/M08 A3032 RMK A01 T00871076  RH  031%=      5-min Rain = 0
KTH1 122016Z 09007KT 09/M08 A3032 RMK A01 T00881078  RH  030%=      5-min Rain = 0
KTH1 122017Z 09006KT 09/M08 A3032 RMK A01 T00871078  RH  030%=      5-min Rain = 0
KTH1 122018Z 10007KT 09/M08 A3032 RMK A01 T00871078  RH  030%=      5-min Rain = 0
KTH1 122019Z 09007KT 09/M08 A3031 RMK A01 T00871077  RH  031%=      5-min Rain = 0
KTH1 122020Z 08006KT 09/M08 A3031 RMK A01 T00871077  RH  031%=      5-min Rain = 0
KTH1 122021Z 05006KT 09/M08 A3031 RMK A01 T00871075  RH  031%=      5-min Rain = 0
KTH1 122022Z 03004KT 09/M08 A3031 RMK A01 T00911075  RH  030%=      5-min Rain = 0
KTH1 122023Z 04007G15KT 09/M08 A3031 RMK A01 T00911078  RH  029%=      5-min Rain = 0
KTH1 122024Z 10008KT 09/M08 A3031 RMK A01 T00921076  RH  030%=      5-min Rain = 0
KTH1 122025Z 08010KT 10/M07 A3031 RMK A01 T00961073  RH  030%=      5-min Rain = 0
KTH1 122026Z 08007KT 10/M08 A3031 RMK A01 T00951079  RH  029%=      5-min Rain = 0
KTH1 122027Z 09008KT 09/M08 A3031 RMK A01 T00911079  RH  029%=      5-min Rain = 0
KTH1 122028Z 08009KT 09/M08 A3031 RMK A01 T00921077  RH  030%=      5-min Rain = 0
KTH1 122029Z 09010KT 10/M08 A3031 RMK A01 T00951076  RH  029%=      5-min Rain = 0
KTH1 122030Z 09010KT 10/M08 A3031 RMK A01 T00961076  RH  029%=      5-min Rain = 0
KTH1 122031Z 08006KT 10/M08 A3031 RMK A01 T00951079  RH  028%=      5-min Rain = 0
KTH1 122032Z 07010KT 09/M08 A3031 RMK A01 T00941078  RH  029%=      5-min Rain = 0
KTH1 122033Z 09008KT 09/M08 A3031 RMK A01 T00921080  RH  029%=      5-min Rain = 0
KTH1 122034Z 08007KT 09/M08 A303 RMK A01 T00921079  RH  029%=      5-min Rain = 0
KTH1 122035Z 08009KT 09/M08 A303 RMK A01 T00911079  RH  029%=      5-min Rain = 0
KTH1 122036Z 08008KT 09/M08 A303 RMK A01 T00901080  RH  029%=      5-min Rain = 0
KTH1 122037Z 09007KT 09/M08 A303 RMK A01 T00901080  RH  029%=      5-min Rain = 0
KTH1 122038Z 09009KT 09/M08 A303 RMK A01 T00891079  RH  030%=      5-min Rain = 0
KTH1 122039Z 08006KT 09/M08 A303 RMK A01 T00911078  RH  029%=      5-min Rain = 0
KTH1 122040Z 08007G13KT 09/M08 A303 RMK A01 T00941076  RH  029%=      5-min Rain = 0
KTH1 122041Z 08010KT 10/M08 A303 RMK A01 T00971077  RH  028%=      5-min Rain = 0
KTH1 122042Z 07008KT 10/M08 A303 RMK A01 T00951081  RH  028%=      5-min Rain = 0
KTH1 122043Z 09007KT 09/M08 A303 RMK A01 T00921081  RH  029%=      5-min Rain = 0
KTH1 122044Z 10008KT 09/M08 A303 RMK A01 T00931078  RH  029%=      5-min Rain = 0
KTH1 122045Z 08008KT 10/M08 A303 RMK A01 T00951078  RH  029%=      5-min Rain = 0
KTH1 122046Z 08008KT 10/M08 A303 RMK A01 T00961078  RH  028%=      5-min Rain = 0
KTH1 122047Z 08007KT 10/M08 A303 RMK A01 T00961079  RH  028%=      5-min Rain = 0
KTH1 122048Z 09006KT 10/M08 A303 RMK A01 T00951079  RH  028%=      5-min Rain = 0
KTH1 122049Z 07005KT 09/M08 A303 RMK A01 T00931081  RH  028%=      5-min Rain = 0
KTH1 122050Z 06008KT 09/M08 A303 RMK A01 T00921079  RH  029%=      5-min Rain = 0
KTH1 122051Z 07007KT 09/M08 A303 RMK A01 T00931078  RH  029%=      5-min Rain = 0
KTH1 122052Z 07009KT 10/M08 A303 RMK A01 T00951077  RH  029%=      5-min Rain = 0
KTH1 122053Z 07008KT 10/M08 A303 RMK A01 T00951079  RH  029%=      5-min Rain = 0
KTH1 122054Z 06005KT 09/M08 A303 RMK A01 T00941077  RH  029%=      5-min Rain = 0
KTH1 122055Z 07006KT 10/M07 A303 RMK A01 T00981074  RH  029%=      5-min Rain = 0
KTH1 122056Z 07010KT 10/M08 A303 RMK A01 T01001077  RH  028%=      5-min Rain = 0
KTH1 122057Z 08010KT 10/M08 A303 RMK A01 T00981079  RH  028%=      5-min Rain = 0
KTH1 122058Z 07007KT 09/M08 A303 RMK A01 T00941081  RH  028%=      5-min Rain = 0
KTH1 122059Z 09005KT 09/M08 A303 RMK A01 T00931080  RH  029%=      5-min Rain = 0
KTH1 122100Z 06007KT 09/M08 A303 RMK A01 T00921079  RH  029%=      5-min Rain = 0
KTH1 122101Z 06008KT 09/M08 A3029 RMK A01 T00921079  RH  029%=      5-min Rain = 0
KTH1 122102Z 07008KT 09/M08 A3029 RMK A01 T00911081  RH  029%=      5-min Rain = 0
KTH1 122103Z 07009KT 09/M08 A3029 RMK A01 T00881081  RH  029%=      5-min Rain = 0
KTH1 122104Z 07009KT 09/M08 A3029 RMK A01 T00871081  RH  030%=      5-min Rain = 0
KTH1 122105Z 06008KT 09/M08 A3029 RMK A01 T00871079  RH  030%=      5-min Rain = 0
KTH1 122106Z 07009KT 09/M08 A3029 RMK A01 T00881080  RH  030%=      5-min Rain = 0
KTH1 122107Z 07011KT 09/M08 A3029 RMK A01 T00871080  RH  030%=      5-min Rain = 0
KTH1 122108Z 07009KT 09/M08 A3029 RMK A01 T00861080  RH  030%=      5-min Rain = 0
KTH1 122109Z 07008KT 09/M08 A3029 RMK A01 T00881078  RH  030%=      5-min Rain = 0
KTH1 122110Z 08006KT 09/M07 A3029 RMK A01 T00931074  RH  030%=      5-min Rain = 0
KTH1 122111Z 09006KT 10/M08 A3029 RMK A01 T00951076  RH  029%=      5-min Rain = 0
KTH1 122112Z 10007KT 10/M08 A3029 RMK A01 T00951077  RH  029%=      5-min Rain = 0
KTH1 122113Z 10007KT 09/M08 A3029 RMK A01 T00941079  RH  029%=      5-min Rain = 0
KTH1 122114Z 09005KT 09/M08 A3029 RMK A01 T00941077  RH  029%=      5-min Rain = 0
KTH1 122115Z 08008G13KT 10/M07 A3029 RMK A01 T00981074  RH  029%=      5-min Rain = 0
KTH1 122116Z 09011KT 10/M08 A3029 RMK A01 T00991077  RH  028%=      5-min Rain = 0
KTH1 122117Z 09008KT 10/M08 A3029 RMK A01 T00971078  RH  028%=      5-min Rain = 0
KTH1 122118Z 06007KT 10/M08 A3029 RMK A01 T00961078  RH  028%=      5-min Rain = 0
KTH1 122119Z 05007KT 10/M08 A3029 RMK A01 T00971076  RH  029%=      5-min Rain = 0
KTH1 122120Z 08009KT 10/M08 A3029 RMK A01 T00981078  RH  028%=      5-min Rain = 0
KTH1 122121Z 10009KT 10/M08 A3029 RMK A01 T00981077  RH  028%=      5-min Rain = 0
KTH1 122122Z 09009KT 10/M08 A3029 RMK A01 T00981077  RH  028%=      5-min Rain = 0
KTH1 122123Z 10008KT 10/M08 A3029 RMK A01 T00971077  RH  028%=      5-min Rain = 0
KTH1 122124Z 10007KT 10/M08 A3029 RMK A01 T00981077  RH  028%=      5-min Rain = 0
KTH1 122125Z 11005KT 10/M08 A3029 RMK A01 T00991076  RH  028%=      5-min Rain = 0
KTH1 122126Z 09006KT 10/M08 A3029 RMK A01 T00991077  RH  028%=      5-min Rain = 0
KTH1 122127Z 10008KT 10/M08 A3029 RMK A01 T00991076  RH  028%=      5-min Rain = 0
KTH1 122128Z 10007KT 10/M08 A3029 RMK A01 T00991077  RH  028%=      5-min Rain = 0
KTH1 122129Z 10010KT 10/M08 A3029 RMK A01 T00991077  RH  028%=      5-min Rain = 0
KTH1 122130Z 10009G14KT 10/M08 A3029 RMK A01 T00981077  RH  028%=      5-min Rain = 0
KTH1 122131Z 11010G15KT 10/M08 A3029 RMK A01 T00981077  RH  028%=      5-min Rain = 0
KTH1 122132Z 11007KT 09/M08 A3029 RMK A01 T00941080  RH  028%=      5-min Rain = 0
KTH1 122133Z 12007KT 09/M08 A3029 RMK A01 T00921078  RH  029%=      5-min Rain = 0
KTH1 122134Z 12006KT 09/M08 A3029 RMK A01 T00941077  RH  029%=      5-min Rain = 0
KTH1 122135Z 08005KT 10/M08 A3029 RMK A01 T00961076  RH  029%=      5-min Rain = 0
KTH1 122136Z 08008KT 10/M08 A3029 RMK A01 T00971075  RH  029%=      5-min Rain = 0
KTH1 122137Z 07008KT 10/M08 A3029 RMK A01 T00991075  RH  029%=      5-min Rain = 0
KTH1 122138Z 08010KT 10/M08 A3028 RMK A01 T00991075  RH  029%=      5-min Rain = 0
KTH1 122139Z 09006KT 10/M08 A3028 RMK A01 T00971078  RH  028%=      5-min Rain = 0
KTH1 122140Z 09009KT 10/M08 A3028 RMK A01 T00951078  RH  029%=      5-min Rain = 0
KTH1 122141Z 08005KT 10/M08 A3028 RMK A01 T00951077  RH  029%=      5-min Rain = 0
KTH1 122142Z 07006G11KT 10/M08 A3028 RMK A01 T00961075  RH  029%=      5-min Rain = 0
KTH1 122143Z 08009KT 10/M08 A3028 RMK A01 T00981075  RH  029%=      5-min Rain = 0
KTH1 122144Z 06009KT 10/M08 A3028 RMK A01 T00971076  RH  029%=      5-min Rain = 0
KTH1 122145Z 06007KT 10/M08 A3028 RMK A01 T00971075  RH  029%=      5-min Rain = 0
KTH1 122146Z 06008KT 10/M08 A3028 RMK A01 T00991075  RH  029%=      5-min Rain = 0
KTH1 122147Z 09008KT 10/M08 A3028 RMK A01 T01001075  RH  029%=      5-min Rain = 0
KTH1 122148Z 09007KT 10/M07 A3028 RMK A01 T01021073  RH  028%=      5-min Rain = 0
KTH1 122149Z 09005KT 10/M07 A3028 RMK A01 T01031074  RH  028%=      5-min Rain = 0
KTH1 122150Z 08004KT 10/M08 A3028 RMK A01 T01031075  RH  028%=      5-min Rain = 0
KTH1 122151Z 09009KT 10/M07 A3028 RMK A01 T01031074  RH  028%=      5-min Rain = 0
KTH1 122152Z 06009KT 10/M07 A3028 RMK A01 T01031074  RH  028%=      5-min Rain = 0
KTH1 122153Z 06009KT 10/M08 A3028 RMK A01 T01021076  RH  028%=      5-min Rain = 0
KTH1 122154Z 07010KT 10/M08 A3028 RMK A01 T01011075  RH  028%=      5-min Rain = 0
KTH1 122155Z 07008KT 10/M08 A3028 RMK A01 T01001076  RH  028%=      5-min Rain = 0
KTH1 122156Z 08007KT 10/M08 A3028 RMK A01 T00981076  RH  029%=      5-min Rain = 0
KTH1 122157Z 08006KT 10/M07 A3028 RMK A01 T00981074  RH  029%=      5-min Rain = 0
KTH1 122158Z 09004KT 10/M07 A3028 RMK A01 T01011072  RH  029%=      5-min Rain = 0
KTH1 122159Z 10005KT 10/M07 A3028 RMK A01 T01041072  RH  028%=      5-min Rain = 0
KTH1 122200Z 08007KT 10/M07 A3028 RMK A01 T01041074  RH  028%=      5-min Rain = 0
KTH1 122201Z 07007KT 10/M08 A3028 RMK A01 T01021075  RH  028%=      5-min Rain = 0
KTH1 122202Z 09008KT 10/M07 A3028 RMK A01 T01011074  RH  028%=      5-min Rain = 0
KTH1 122203Z 07006KT 10/M07 A3028 RMK A01 T01011074  RH  028%=      5-min Rain = 0
KTH1 122204Z 07006KT 10/M07 A3028 RMK A01 T01011074  RH  028%=      5-min Rain = 0
KTH1 122205Z 07007KT 10/M08 A3028 RMK A01 T01001075  RH  028%=      5-min Rain = 0
KTH1 122206Z 09008KT 10/M08 A3028 RMK A01 T00991075  RH  029%=      5-min Rain = 0
KTH1 122207Z 07008KT 10/M07 A3028 RMK A01 T00991074  RH  029%=      5-min Rain = 0
KTH1 122208Z 08008KT 10/M08 A3028 RMK A01 T00991075  RH  029%=      5-min Rain = 0
KTH1 122209Z 09007KT 10/M08 A3028 RMK A01 T00981075  RH  029%=      5-min Rain = 0
KTH1 122210Z 08008KT 10/M08 A3028 RMK A01 T00971075  RH  029%=      5-min Rain = 0
KTH1 122211Z 07007KT 10/M07 A3028 RMK A01 T00971074  RH  029%=      5-min Rain = 0
KTH1 122212Z 06009KT 10/M07 A3027 RMK A01 T00981073  RH  029%=      5-min Rain = 0
KTH1 122213Z 05010KT 10/M07 A3027 RMK A01 T01011072  RH  029%=      5-min Rain = 0
KTH1 122214Z 06009KT 10/M07 A3027 RMK A01 T01031071  RH  029%=      5-min Rain = 0
KTH1 122215Z 09009KT 10/M07 A3028 RMK A01 T01041072  RH  028%=      5-min Rain = 0
KTH1 122216Z 10006KT 10/M07 A3028 RMK A01 T01031074  RH  028%=      5-min Rain = 0
KTH1 122217Z 09006KT 10/M07 A3028 RMK A01 T01001073  RH  029%=      5-min Rain = 0
KTH1 122218Z 06007KT 10/M07 A3028 RMK A01 T01011072  RH  029%=      5-min Rain = 0
KTH1 122219Z 06008KT 10/M07 A3027 RMK A01 T01031072  RH  029%=      5-min Rain = 0
KTH1 122220Z 08009KT 10/M07 A3027 RMK A01 T01021073  RH  028%=      5-min Rain = 0
KTH1 122221Z 09010KT 10/M07 A3027 RMK A01 T01021072  RH  029%=      5-min Rain = 0
KTH1 122222Z 09008KT 10/M07 A3027 RMK A01 T01001073  RH  029%=      5-min Rain = 0
KTH1 122223Z 09006KT 10/M07 A3027 RMK A01 T00981074  RH  029%=      5-min Rain = 0
KTH1 122224Z 08007KT 10/M07 A3027 RMK A01 T00971072  RH  030%=      5-min Rain = 0
KTH1 122225Z 07008KT 10/M07 A3027 RMK A01 T00971073  RH  029%=      5-min Rain = 0
KTH1 122226Z 11005KT 10/M07 A3027 RMK A01 T00971073  RH  030%=      5-min Rain = 0
KTH1 122227Z 11006KT 10/M07 A3027 RMK A01 T00981071  RH  030%=      5-min Rain = 0
KTH1 122228Z 11004KT 10/M07 A3027 RMK A01 T00991072  RH  029%=      5-min Rain = 0
KTH1 122229Z 10007KT 10/M07 A3027 RMK A01 T00991071  RH  029%=      5-min Rain = 0
KTH1 122230Z 10007KT 10/M07 A3027 RMK A01 T01001071  RH  029%=      5-min Rain = 0
KTH1 122231Z 08007KT 10/M07 A3027 RMK A01 T01021069  RH  029%=      5-min Rain = 0
KTH1 122232Z 09009KT 10/M07 A3027 RMK A01 T01021070  RH  029%=      5-min Rain = 0
KTH1 122233Z 10010KT 10/M07 A3027 RMK A01 T01011071  RH  029%=      5-min Rain = 0
KTH1 122234Z 10008KT 10/M07 A3027 RMK A01 T01001071  RH  029%=      5-min Rain = 0
KTH1 122235Z 11008KT 10/M07 A3027 RMK A01 T01001071  RH  029%=      5-min Rain = 0
KTH1 122236Z 12007KT 10/M07 A3027 RMK A01 T00991071  RH  029%=      5-min Rain = 0
KTH1 122237Z 12005KT 10/M07 A3027 RMK A01 T00991069  RH  030%=      5-min Rain = 0
KTH1 122238Z 11006KT 10/M07 A3027 RMK A01 T01011069  RH  030%=      5-min Rain = 0
KTH1 122239Z 10007KT 10/M07 A3027 RMK A01 T01011070  RH  029%=      5-min Rain = 0
KTH1 122240Z 07007KT 10/M07 A3027 RMK A01 T01011069  RH  030%=      5-min Rain = 0
KTH1 122241Z 08006KT 10/M07 A3027 RMK A01 T01011069  RH  029%=      5-min Rain = 0
KTH1 122242Z 08007KT 10/M07 A3027 RMK A01 T01021069  RH  029%=      5-min Rain = 0
KTH1 122243Z 07009KT 10/M07 A3027 RMK A01 T01031069  RH  029%=      5-min Rain = 0
KTH1 122244Z 08006KT 10/M07 A3027 RMK A01 T01021070  RH  029%=      5-min Rain = 0
KTH1 122245Z 08006KT 10/M07 A3027 RMK A01 T01011069  RH  030%=      5-min Rain = 0
KTH1 122246Z 07009KT 10/M07 A3027 RMK A01 T01021068  RH  030%=      5-min Rain = 0
KTH1 122247Z 07008KT 10/M07 A3027 RMK A01 T01021069  RH  029%=      5-min Rain = 0
KTH1 122248Z 08009KT 10/M07 A3027 RMK A01 T01021069  RH  029%=      5-min Rain = 0
KTH1 122249Z 07008KT 10/M07 A3027 RMK A01 T01021068  RH  030%=      5-min Rain = 0
KTH1 122250Z 09007KT 10/M07 A3027 RMK A01 T01021067  RH  030%=      5-min Rain = 0
KTH1 122251Z 07007KT 10/M07 A3027 RMK A01 T01031068  RH  029%=      5-min Rain = 0
KTH1 122252Z 08006KT 10/M07 A3027 RMK A01 T01031068  RH  029%=      5-min Rain = 0
KTH1 122253Z 10010KT 10/M07 A3027 RMK A01 T01041067  RH  029%=      5-min Rain = 0
KTH1 122254Z 10008KT 10/M07 A3027 RMK A01 T01031069  RH  029%=      5-min Rain = 0
KTH1 122255Z 11008KT 10/M07 A3027 RMK A01 T01021069  RH  029%=      5-min Rain = 0
KTH1 122256Z 11009KT 10/M07 A3027 RMK A01 T01021068  RH  029%=      5-min Rain = 0
KTH1 122257Z 09007KT 10/M07 A3027 RMK A01 T01021068  RH  030%=      5-min Rain = 0
KTH1 122258Z 10010KT 10/M07 A3027 RMK A01 T01021068  RH  030%=      5-min Rain = 0
KTH1 122259Z 09010KT 10/M07 A3027 RMK A01 T01021068  RH  029%=      5-min Rain = 0
KTH1 122300Z 09011KT 10/M07 A3027 RMK A01 T01011068  RH  030%=      5-min Rain = 0
KTH1 122301Z 09011KT 10/M07 A3027 RMK A01 T01011068  RH  030%=      5-min Rain = 0
KTH1 122302Z 09011KT 10/M07 A3027 RMK A01 T01011068  RH  030%=      5-min Rain = 0
KTH1 122303Z 09009KT 10/M07 A3028 RMK A01 T01001068  RH  030%=      5-min Rain = 0
KTH1 122304Z 08009KT 10/M07 A3028 RMK A01 T01001068  RH  030%=      5-min Rain = 0
KTH1 122305Z 10009KT 10/M07 A3028 RMK A01 T01001068  RH  030%=      5-min Rain = 0
KTH1 122306Z 10010KT 10/M07 A3028 RMK A01 T01001068  RH  030%=      5-min Rain = 0
KTH1 122307Z 09008KT 10/M07 A3028 RMK A01 T01001068  RH  030%=      5-min Rain = 0
KTH1 122308Z 10009KT 10/M07 A3028 RMK A01 T01001067  RH  030%=      5-min Rain = 0
KTH1 122309Z 08010KT 10/M07 A3028 RMK A01 T01001067  RH  030%=      5-min Rain = 0
KTH1 122310Z 08010KT 10/M07 A3028 RMK A01 T01001067  RH  030%=      5-min Rain = 0
KTH1 122311Z 08009KT 10/M07 A3028 RMK A01 T01001068  RH  030%=      5-min Rain = 0
KTH1 122312Z 08008KT 10/M07 A3028 RMK A01 T01001068  RH  030%=      5-min Rain = 0
KTH1 122313Z 07009KT 10/M07 A3028 RMK A01 T01001067  RH  030%=      5-min Rain = 0
KTH1 122314Z 09008KT 10/M07 A3028 RMK A01 T01001068  RH  030%=      5-min Rain = 0
KTH1 122315Z 10008KT 10/M07 A3028 RMK A01 T01011067  RH  030%=      5-min Rain = 0
KTH1 122316Z 09007KT 10/M07 A3028 RMK A01 T01011067  RH  030%=      5-min Rain = 0
KTH1 122317Z 09008KT 10/M07 A3028 RMK A01 T01011067  RH  030%=      5-min Rain = 0
KTH1 122318Z 09007KT 10/M07 A3028 RMK A01 T01011067  RH  030%=      5-min Rain = 0
KTH1 122319Z 10006KT 10/M07 A3028 RMK A01 T01011067  RH  030%=      5-min Rain = 0
KTH1 122320Z 11006KT 10/M07 A3028 RMK A01 T01011066  RH  030%=      5-min Rain = 0
KTH1 122321Z 09010KT 10/M07 A3028 RMK A01 T01011067  RH  030%=      5-min Rain = 0
KTH1 122322Z 10009KT 10/M07 A3028 RMK A01 T01011067  RH  030%=      5-min Rain = 0
KTH1 122323Z 11009KT 10/M07 A3028 RMK A01 T01001067  RH  030%=      5-min Rain = 0
KTH1 122324Z 10008KT 10/M07 A3028 RMK A01 T00991067  RH  030%=      5-min Rain = 0
KTH1 122325Z 11007KT 10/M07 A3028 RMK A01 T00991067  RH  030%=      5-min Rain = 0
KTH1 122326Z 11006KT 10/M07 A3028 RMK A01 T00991067  RH  030%=      5-min Rain = 0
KTH1 122327Z 10006KT 10/M07 A3028 RMK A01 T01001066  RH  031%=      5-min Rain = 0
KTH1 122328Z 10007KT 10/M07 A3028 RMK A01 T01001066  RH  030%=      5-min Rain = 0
KTH1 122329Z 10007KT 10/M07 A3028 RMK A01 T01011066  RH  030%=      5-min Rain = 0
KTH1 122330Z 09005KT 10/M07 A3028 RMK A01 T00991067  RH  030%=      5-min Rain = 0
KTH1 122331Z 09006KT 10/M07 A3028 RMK A01 T00991066  RH  031%=      5-min Rain = 0
KTH1 122332Z 11007KT 10/M07 A3028 RMK A01 T00991066  RH  031%=      5-min Rain = 0
KTH1 122333Z 11010KT 10/M07 A3028 RMK A01 T00991066  RH  031%=      5-min Rain = 0
KTH1 122334Z 11008KT 10/M07 A3028 RMK A01 T00981066  RH  031%=      5-min Rain = 0
KTH1 122335Z 10008KT 10/M07 A3028 RMK A01 T00981066  RH  031%=      5-min Rain = 0
KTH1 122336Z 09008KT 10/M07 A3028 RMK A01 T00971066  RH  031%=      5-min Rain = 0
KTH1 122337Z 11008KT 10/M07 A3028 RMK A01 T00971065  RH  031%=      5-min Rain = 0
KTH1 122338Z 12006KT 10/M07 A3028 RMK A01 T00971066  RH  031%=      5-min Rain = 0
KTH1 122339Z 11006KT 10/M07 A3028 RMK A01 T00971065  RH  031%=      5-min Rain = 0
KTH1 122340Z 10006KT 10/M07 A3028 RMK A01 T00971065  RH  031%=      5-min Rain = 0
KTH1 122341Z 11007KT 10/M07 A3028 RMK A01 T00971065  RH  031%=      5-min Rain = 0
KTH1 122342Z 11006KT 10/M07 A3028 RMK A01 T00971065  RH  031%=      5-min Rain = 0
KTH1 122343Z 11007KT 10/M07 A3028 RMK A01 T00961065  RH  031%=      5-min Rain = 0
KTH1 122344Z 11009KT 10/M07 A3028 RMK A01 T00961065  RH  032%=      5-min Rain = 0
KTH1 122345Z 12010KT 10/M06 A3028 RMK A01 T00961064  RH  032%=      5-min Rain = 0
KTH1 122346Z 13011KT 10/M06 A3028 RMK A01 T00951064  RH  032%=      5-min Rain = 0
KTH1 122347Z 12009KT 09/M06 A3028 RMK A01 T00941064  RH  032%=      5-min Rain = 0
KTH1 122348Z 12009KT 09/M06 A3028 RMK A01 T00941063  RH  032%=      5-min Rain = 0
KTH1 122349Z 12009KT 09/M06 A3028 RMK A01 T00931064  RH  032%=      5-min Rain = 0
KTH1 122350Z 12009KT 09/M06 A3028 RMK A01 T00931063  RH  033%=      5-min Rain = 0
KTH1 122351Z 12008KT 09/M06 A3028 RMK A01 T00921063  RH  033%=      5-min Rain = 0
KTH1 122352Z 12008KT 09/M06 A3028 RMK A01 T00911064  RH  033%=      5-min Rain = 0
KTH1 122353Z 13008KT 09/M06 A3028 RMK A01 T00911063  RH  033%=      5-min Rain = 0
KTH1 122354Z 12009KT 09/M06 A3028 RMK A01 T00901063  RH  033%=      5-min Rain = 0
KTH1 122355Z 13009KT 09/M06 A3028 RMK A01 T00901063  RH  033%=      5-min Rain = 0
KTH1 122356Z 13009KT 09/M06 A3028 RMK A01 T00901063  RH  033%=      5-min Rain = 0
KTH1 122357Z 12010KT 09/M06 A3028 RMK A01 T00901062  RH  034%=      5-min Rain = 0
KTH1 122358Z 13008KT 09/M06 A3028 RMK A01 T00891062  RH  034%=      5-min Rain = 0
KTH1 122359Z 12009KT 09/M06 A3028 RMK A01 T00891062  RH  034%=      5-min Rain = 0
KTH1 130000Z 12010KT 09/M06 A3028 RMK A01 T00881062  RH  034%=      5-min Rain = 0
KTH1 130001Z 12008KT 09/M06 A3028 RMK A01 T00871063  RH  034%=      5-min Rain = 0
KTH1 130002Z 13008KT 09/M06 A3028 RMK A01 T00871062  RH  034%=      5-min Rain = 0
KTH1 130003Z 12009KT 09/M06 A3028 RMK A01 T00861062  RH  034%=      5-min Rain = 0
KTH1 130004Z 13008KT 09/M06 A3028 RMK A01 T00851062  RH  035%=      5-min Rain = 0
KTH1 130005Z 12007KT 09/M06 A3028 RMK A01 T00851062  RH  035%=      5-min Rain = 0
KTH1 130006Z 12007KT 08/M06 A3028 RMK A01 T00841062  RH  035%=      5-min Rain = 0
KTH1 130007Z 12006KT 08/M06 A3028 RMK A01 T00831062  RH  035%=      5-min Rain = 0
KTH1 130008Z 12007KT 08/M06 A3028 RMK A01 T00831062  RH  035%=      5-min Rain = 0
KTH1 130009Z 12008KT 08/M06 A3028 RMK A01 T00821062  RH  035%=      5-min Rain = 0
KTH1 130010Z 12006KT 08/M06 A3028 RMK A01 T00821062  RH  035%=      5-min Rain = 0
KTH1 130011Z 12008KT 08/M06 A3028 RMK A01 T00811062  RH  036%=      5-min Rain = 0
KTH1 130012Z 12008KT 08/M06 A3028 RMK A01 T00801062  RH  036%=      5-min Rain = 0
KTH1 130013Z 12006KT 08/M06 A3028 RMK A01 T00801062  RH  036%=      5-min Rain = 0
KTH1 130014Z 12006KT 08/M06 A3028 RMK A01 T00791062  RH  036%=      5-min Rain = 0
KTH1 130015Z 12007KT 08/M06 A3028 RMK A01 T00781062  RH  036%=      5-min Rain = 0
KTH1 130016Z 12007KT 08/M06 A3028 RMK A01 T00781062  RH  036%=      5-min Rain = 0
KTH1 130017Z 12007KT 08/M06 A3028 RMK A01 T00781062  RH  037%=      5-min Rain = 0
KTH1 130018Z 12007KT 08/M06 A3028 RMK A01 T00771062  RH  037%=      5-min Rain = 0
KTH1 130019Z 12006KT 08/M06 A3028 RMK A01 T00761063  RH  037%=      5-min Rain = 0
KTH1 130020Z 12006KT 08/M06 A3028 RMK A01 T00751062  RH  037%=      5-min Rain = 0
KTH1 130021Z 12006KT 08/M06 A3028 RMK A01 T00751062  RH  037%=      5-min Rain = 0
KTH1 130022Z 12006KT 07/M06 A3028 RMK A01 T00741063  RH  037%=      5-min Rain = 0
KTH1 130023Z 13006KT 07/M06 A3028 RMK A01 T00721063  RH  038%=      5-min Rain = 0
KTH1 130024Z 13006KT 07/M06 A3028 RMK A01 T00711063  RH  038%=      5-min Rain = 0
KTH1 130025Z 12006KT 07/M06 A3028 RMK A01 T00711063  RH  038%=      5-min Rain = 0
KTH1 130026Z 13005KT 07/M06 A3028 RMK A01 T00701063  RH  038%=      5-min Rain = 0
KTH1 130027Z 12006KT 07/M06 A3028 RMK A01 T00691063  RH  038%=      5-min Rain = 0
KTH1 130028Z 12006KT 07/M06 A3028 RMK A01 T00681063  RH  038%=      5-min Rain = 0
KTH1 130029Z 12006KT 07/M06 A3028 RMK A01 T00681063  RH  039%=      5-min Rain = 0
KTH1 130030Z 12006KT 07/M06 A3028 RMK A01 T00671063  RH  039%=      5-min Rain = 0
KTH1 130031Z 12006KT 07/M06 A3028 RMK A01 T00661063  RH  039%=      5-min Rain = 0
KTH1 130032Z 12005KT 07/M06 A3028 RMK A01 T00661063  RH  039%=      5-min Rain = 0
KTH1 130033Z 12005KT 07/M06 A3028 RMK A01 T00661063  RH  039%=      5-min Rain = 0
KTH1 130034Z 11005KT 07/M06 A3028 RMK A01 T00661063  RH  039%=      5-min Rain = 0
KTH1 130035Z 12005KT 07/M06 A3028 RMK A01 T00661063  RH  039%=      5-min Rain = 0
KTH1 130036Z 12005KT 07/M06 A3028 RMK A01 T00651063  RH  040%=      5-min Rain = 0
KTH1 130037Z 12005KT 07/M06 A3028 RMK A01 T00651063  RH  040%=      5-min Rain = 0
KTH1 130038Z 12005KT 06/M06 A3028 RMK A01 T00641063  RH  040%=      5-min Rain = 0
KTH1 130039Z 12005KT 06/M06 A3028 RMK A01 T00631063  RH  040%=      5-min Rain = 0
KTH1 130040Z 12005KT 06/M06 A3028 RMK A01 T00631063  RH  040%=      5-min Rain = 0
KTH1 130041Z 12005KT 06/M06 A3028 RMK A01 T00631063  RH  040%=      5-min Rain = 0
KTH1 130042Z 12007KT 06/M06 A3028 RMK A01 T00621063  RH  040%=      5-min Rain = 0
KTH1 130043Z 12006KT 06/M06 A3028 RMK A01 T00631062  RH  040%=      5-min Rain = 0
KTH1 130044Z 11006KT 06/M06 A3028 RMK A01 T00631062  RH  040%=      5-min Rain = 0
KTH1 130045Z 11006KT 06/M06 A3028 RMK A01 T00641061  RH  040%=      5-min Rain = 0
KTH1 130046Z 11005KT 06/M06 A3028 RMK A01 T00641062  RH  040%=      5-min Rain = 0
KTH1 130047Z 11005KT 06/M06 A3028 RMK A01 T00631062  RH  040%=      5-min Rain = 0
KTH1 130048Z 11005KT 06/M06 A3029 RMK A01 T00641061  RH  040%=      5-min Rain = 0
KTH1 130049Z 12005KT 06/M06 A3029 RMK A01 T00641061  RH  041%=      5-min Rain = 0
KTH1 130050Z 11006KT 06/M06 A3029 RMK A01 T00641061  RH  041%=      5-min Rain = 0
KTH1 130051Z 11005KT 06/M06 A3029 RMK A01 T00631061  RH  041%=      5-min Rain = 0
KTH1 130052Z 11005KT 06/M06 A3029 RMK A01 T00631060  RH  041%=      5-min Rain = 0
KTH1 130053Z 11005KT 06/M06 A3029 RMK A01 T00631061  RH  041%=      5-min Rain = 0
KTH1 130054Z 11006KT 06/M06 A3029 RMK A01 T00621060  RH  041%=      5-min Rain = 0
KTH1 130055Z 11005KT 06/M06 A3029 RMK A01 T00621060  RH  041%=      5-min Rain = 0
KTH1 130056Z 12006KT 06/M06 A3029 RMK A01 T00621060  RH  041%=      5-min Rain = 0
KTH1 130057Z 11005KT 06/M06 A3029 RMK A01 T00621060  RH  041%=      5-min Rain = 0
KTH1 130058Z 12006KT 06/M06 A3029 RMK A01 T00621060  RH  041%=      5-min Rain = 0
KTH1 130059Z 12006KT 06/M06 A3029 RMK A01 T00621059  RH  042%=      5-min Rain = 0
KTH1 130100Z 12005KT 06/M06 A3029 RMK A01 T00621059  RH  042%=      5-min Rain = 0
KTH1 130101Z 12005KT 06/M06 A3029 RMK A01 T00611060  RH  042%=      5-min Rain = 0
KTH1 130102Z 12006KT 06/M06 A3029 RMK A01 T00601060  RH  042%=      5-min Rain = 0
KTH1 130103Z 11005KT 06/M06 A3029 RMK A01 T00601060  RH  042%=      5-min Rain = 0
KTH1 130104Z 11005KT 06/M06 A3029 RMK A01 T00591059  RH  042%=      5-min Rain = 0
KTH1 130105Z 11005KT 06/M06 A3029 RMK A01 T00591059  RH  042%=      5-min Rain = 0
KTH1 130106Z 11006KT 06/M06 A3029 RMK A01 T00591059  RH  042%=      5-min Rain = 0
KTH1 130107Z 11006KT 06/M06 A3029 RMK A01 T00591059  RH  042%=      5-min Rain = 0
KTH1 130108Z 11005KT 06/M06 A3029 RMK A01 T00591059  RH  042%=      5-min Rain = 0
KTH1 130109Z 11006KT 06/M06 A3029 RMK A01 T00591059  RH  043%=      5-min Rain = 0
KTH1 130110Z 11006KT 06/M06 A3029 RMK A01 T00591059  RH  043%=      5-min Rain = 0
KTH1 130111Z 11006KT 06/M06 A3029 RMK A01 T00591058  RH  043%=      5-min Rain = 0
KTH1 130112Z 11006KT 06/M06 A3029 RMK A01 T00591058  RH  043%=      5-min Rain = 0
KTH1 130113Z 11006KT 06/M06 A3029 RMK A01 T00591058  RH  043%=      5-min Rain = 0
KTH1 130114Z 11006KT 06/M06 A3029 RMK A01 T00591057  RH  043%=      5-min Rain = 0
KTH1 130115Z 11006KT 06/M06 A3029 RMK A01 T00601057  RH  043%=      5-min Rain = 0
KTH1 130116Z 11006KT 06/M06 A3029 RMK A01 T00591057  RH  043%=      5-min Rain = 0
KTH1 130117Z 11007KT 06/M06 A303 RMK A01 T00601057  RH  043%=      5-min Rain = 0
KTH1 130118Z 11006KT 06/M06 A303 RMK A01 T00601057  RH  043%=      5-min Rain = 0
KTH1 130119Z 11007KT 06/M06 A303 RMK A01 T00601056  RH  043%=      5-min Rain = 0
KTH1 130120Z 10006KT 06/M06 A303 RMK A01 T00601057  RH  043%=      5-min Rain = 0
KTH1 130121Z 10007KT 06/M06 A303 RMK A01 T00591057  RH  043%=      5-min Rain = 0
KTH1 130122Z 11006KT 06/M06 A303 RMK A01 T00591056  RH  043%=      5-min Rain = 0
KTH1 130123Z 11007KT 06/M06 A303 RMK A01 T00601056  RH  043%=      5-min Rain = 0
KTH1 130124Z 10007KT 06/M06 A303 RMK A01 T00591057  RH  043%=      5-min Rain = 0
KTH1 130125Z 10007KT 06/M06 A303 RMK A01 T00591056  RH  043%=      5-min Rain = 0
KTH1 130126Z 10008KT 06/M06 A303 RMK A01 T00591056  RH  043%=      5-min Rain = 0
KTH1 130127Z 10007KT 06/M06 A303 RMK A01 T00581056  RH  044%=      5-min Rain = 0
KTH1 130128Z 10007KT 06/M06 A303 RMK A01 T00581056  RH  044%=      5-min Rain = 0
KTH1 130129Z 10007KT 06/M06 A303 RMK A01 T00571056  RH  044%=      5-min Rain = 0
KTH1 130130Z 10008KT 06/M06 A303 RMK A01 T00571056  RH  044%=      5-min Rain = 0
KTH1 130131Z 10007KT 06/M06 A303 RMK A01 T00561056  RH  044%=      5-min Rain = 0
KTH1 130132Z 10008KT 06/M06 A303 RMK A01 T00561056  RH  044%=      5-min Rain = 0
KTH1 130133Z 10007KT 06/M06 A303 RMK A01 T00561055  RH  045%=      5-min Rain = 0
KTH1 130134Z 10008KT 06/M06 A303 RMK A01 T00561055  RH  045%=      5-min Rain = 0
KTH1 130135Z 10009KT 06/M06 A303 RMK A01 T00561055  RH  045%=      5-min Rain = 0
KTH1 130136Z 10008KT 06/M06 A303 RMK A01 T00561055  RH  045%=      5-min Rain = 0
KTH1 130137Z 10008KT 06/M06 A303 RMK A01 T00551055  RH  045%=      5-min Rain = 0
KTH1 130138Z 10008KT 05/M06 A303 RMK A01 T00541055  RH  045%=      5-min Rain = 0
KTH1 130139Z 10009KT 05/M06 A303 RMK A01 T00541055  RH  045%=      5-min Rain = 0
KTH1 130140Z 10007KT 05/M05 A303 RMK A01 T00541054  RH  045%=      5-min Rain = 0
KTH1 130141Z 10008KT 05/M05 A303 RMK A01 T00541054  RH  045%=      5-min Rain = 0
KTH1 130142Z 10008KT 05/M06 A303 RMK A01 T00541055  RH  046%=      5-min Rain = 0
KTH1 130143Z 10008KT 05/M05 A303 RMK A01 T00531054  RH  046%=      5-min Rain = 0
KTH1 130144Z 10007KT 05/M05 A303 RMK A01 T00531054  RH  046%=      5-min Rain = 0
KTH1 130145Z 10007KT 05/M05 A303 RMK A01 T00531054  RH  046%=      5-min Rain = 0
KTH1 130146Z 11008KT 05/M05 A303 RMK A01 T00521054  RH  046%=      5-min Rain = 0
KTH1 130147Z 10006KT 05/M05 A303 RMK A01 T00521054  RH  046%=      5-min Rain = 0
KTH1 130148Z 10006KT 05/M06 A303 RMK A01 T00511055  RH  046%=      5-min Rain = 0
KTH1 130149Z 10007KT 05/M06 A303 RMK A01 T00501055  RH  047%=      5-min Rain = 0
KTH1 130150Z 10006KT 05/M06 A303 RMK A01 T00491055  RH  047%=      5-min Rain = 0
KTH1 130151Z 10006KT 05/M05 A303 RMK A01 T00491054  RH  047%=      5-min Rain = 0
KTH1 130152Z 09006KT 05/M05 A303 RMK A01 T00491054  RH  047%=      5-min Rain = 0
KTH1 130153Z 08006KT 05/M06 A303 RMK A01 T00481055  RH  048%=      5-min Rain = 0
KTH1 130154Z 08005KT 05/M06 A303 RMK A01 T00471055  RH  048%=      5-min Rain = 0
KTH1 130155Z 08005KT 05/M06 A303 RMK A01 T00461055  RH  048%=      5-min Rain = 0
KTH1 130156Z 09006KT 05/M06 A303 RMK A01 T00451057  RH  048%=      5-min Rain = 0
KTH1 130157Z 09006KT 04/M06 A303 RMK A01 T00441057  RH  048%=      5-min Rain = 0
KTH1 130158Z 09005KT 04/M06 A3031 RMK A01 T00431057  RH  048%=      5-min Rain = 0
KTH1 130159Z 09005KT 04/M06 A3031 RMK A01 T00431057  RH  048%=      5-min Rain = 0
KTH1 130200Z 09004KT 04/M06 A3031 RMK A01 T00421056  RH  049%=      5-min Rain = 0
KTH1 130201Z 08003KT 04/M06 A3031 RMK A01 T00411057  RH  049%=      5-min Rain = 0
KTH1 130202Z 08004KT 04/M06 A3031 RMK A01 T00401059  RH  049%=      5-min Rain = 0
KTH1 130203Z 08004KT 04/M06 A3031 RMK A01 T00391059  RH  049%=      5-min Rain = 0
KTH1 130204Z 08005KT 04/M06 A3031 RMK A01 T00391059  RH  049%=      5-min Rain = 0
KTH1 130205Z 08005KT 04/M06 A3031 RMK A01 T00381058  RH  049%=      5-min Rain = 0
KTH1 130206Z 09005KT 04/M06 A3031 RMK A01 T00381058  RH  050%=      5-min Rain = 0
KTH1 130207Z 08005KT 04/M06 A3031 RMK A01 T00381058  RH  049%=      5-min Rain = 0
KTH1 130208Z 08004KT 04/M06 A3031 RMK A01 T00371059  RH  049%=      5-min Rain = 0
KTH1 130209Z 08005KT 04/M06 A3031 RMK A01 T00361060  RH  049%=      5-min Rain = 0
KTH1 130210Z 09006KT 04/M06 A3031 RMK A01 T00351061  RH  049%=      5-min Rain = 0
KTH1 130211Z 09004KT 04/M06 A3031 RMK A01 T00351060  RH  050%=      5-min Rain = 0
KTH1 130212Z 09005KT 04/M06 A3031 RMK A01 T00351060  RH  050%=      5-min Rain = 0
KTH1 130213Z 09006KT 04/M06 A3031 RMK A01 T00351060  RH  050%=      5-min Rain = 0
KTH1 130214Z 09006KT 03/M06 A3031 RMK A01 T00341059  RH  050%=      5-min Rain = 0
KTH1 130215Z 10005KT 03/M06 A3031 RMK A01 T00341059  RH  050%=      5-min Rain = 0
KTH1 130216Z 10005KT 04/M06 A3031 RMK A01 T00351058  RH  051%=      5-min Rain = 0
KTH1 130217Z 10005KT 03/M06 A3032 RMK A01 T00341058  RH  051%=      5-min Rain = 0
KTH1 130218Z 11005KT 04/M06 A3032 RMK A01 T00351057  RH  051%=      5-min Rain = 0
KTH1 130219Z 11006KT 04/M06 A3032 RMK A01 T00351057  RH  051%=      5-min Rain = 0
KTH1 130220Z 10005KT 04/M06 A3032 RMK A01 T00351057  RH  051%=      5-min Rain = 0
KTH1 130221Z 11006KT 04/M06 A3032 RMK A01 T00351056  RH  051%=      5-min Rain = 0
KTH1 130222Z 11006KT 04/M06 A3032 RMK A01 T00351056  RH  051%=      5-min Rain = 0
KTH1 130223Z 10006KT 04/M06 A3032 RMK A01 T00351055  RH  052%=      5-min Rain = 0
KTH1 130224Z 11006KT 04/M06 A3032 RMK A01 T00351055  RH  052%=      5-min Rain = 0
KTH1 130225Z 11007KT 03/M05 A3032 RMK A01 T00341054  RH  052%=      5-min Rain = 0
KTH1 130226Z 10008KT 04/M05 A3032 RMK A01 T00351053  RH  052%=      5-min Rain = 0
KTH1 130227Z 10008KT 04/M05 A3032 RMK A01 T00351053  RH  053%=      5-min Rain = 0
KTH1 130228Z 10008KT 04/M05 A3032 RMK A01 T00351052  RH  053%=      5-min Rain = 0
KTH1 130229Z 10008KT 04/M05 A3032 RMK A01 T00361051  RH  053%=      5-min Rain = 0
KTH1 130230Z 10008KT 04/M05 A3032 RMK A01 T00361051  RH  053%=      5-min Rain = 0
KTH1 130231Z 10007KT 04/M05 A3032 RMK A01 T00361051  RH  053%=      5-min Rain = 0
KTH1 130232Z 10008KT 04/M05 A3032 RMK A01 T00351051  RH  053%=      5-min Rain = 0
KTH1 130233Z 10008KT 04/M05 A3032 RMK A01 T00351050  RH  054%=      5-min Rain = 0
KTH1 130234Z 10007KT 04/M05 A3032 RMK A01 T00351050  RH  054%=      5-min Rain = 0
KTH1 130235Z 11008KT 04/M05 A3032 RMK A01 T00351050  RH  054%=      5-min Rain = 0
KTH1 130236Z 10008KT 04/M05 A3032 RMK A01 T00351049  RH  054%=      5-min Rain = 0
KTH1 130237Z 11007KT 04/M05 A3032 RMK A01 T00351049  RH  054%=      5-min Rain = 0
KTH1 130238Z 11007KT 04/M05 A3032 RMK A01 T00351049  RH  054%=      5-min Rain = 0
KTH1 130239Z 10007KT 04/M05 A3032 RMK A01 T00351049  RH  054%=      5-min Rain = 0
KTH1 130240Z 11007KT 03/M05 A3032 RMK A01 T00341049  RH  054%=      5-min Rain = 0
KTH1 130241Z 11007KT 03/M05 A3032 RMK A01 T00341049  RH  055%=      5-min Rain = 0
KTH1 130242Z 10007KT 03/M05 A3032 RMK A01 T00331049  RH  055%=      5-min Rain = 0
KTH1 130243Z 11008KT 03/M05 A3032 RMK A01 T00331049  RH  055%=      5-min Rain = 0
KTH1 130244Z 10008KT 03/M05 A3032 RMK A01 T00331049  RH  055%=      5-min Rain = 0
KTH1 130245Z 11007KT 03/M05 A3032 RMK A01 T00331049  RH  055%=      5-min Rain = 0
KTH1 130246Z 10008KT 03/M05 A3032 RMK A01 T00321049  RH  055%=      5-min Rain = 0
KTH1 130247Z 10007KT 03/M05 A3032 RMK A01 T00331048  RH  055%=      5-min Rain = 0
KTH1 130248Z 10007KT 03/M05 A3032 RMK A01 T00321049  RH  055%=      5-min Rain = 0
KTH1 130249Z 10008KT 03/M05 A3032 RMK A01 T00311049  RH  056%=      5-min Rain = 0
KTH1 130250Z 10007KT 03/M05 A3032 RMK A01 T00311049  RH  056%=      5-min Rain = 0
KTH1 130251Z 10008KT 03/M05 A3032 RMK A01 T00301049  RH  056%=      5-min Rain = 0
KTH1 130252Z 10007KT 03/M05 A3032 RMK A01 T00301049  RH  056%=      5-min Rain = 0
KTH1 130253Z 10007KT 03/M05 A3032 RMK A01 T00301048  RH  056%=      5-min Rain = 0
KTH1 130254Z 10007KT 03/M05 A3032 RMK A01 T00301049  RH  056%=      5-min Rain = 0
KTH1 130255Z 10007KT 03/M05 A3032 RMK A01 T00291049  RH  056%=      5-min Rain = 0
KTH1 130256Z 10008KT 03/M05 A3032 RMK A01 T00291049  RH  057%=      5-min Rain = 0
KTH1 130257Z 10008KT 03/M05 A3032 RMK A01 T00291048  RH  057%=      5-min Rain = 0
KTH1 130258Z 10008KT 03/M05 A3032 RMK A01 T00291048  RH  057%=      5-min Rain = 0
KTH1 130259Z 10007KT 03/M05 A3032 RMK A01 T00291048  RH  057%=      5-min Rain = 0
KTH1 130300Z 10008KT 03/M05 A3032 RMK A01 T00291049  RH  057%=      5-min Rain = 0
KTH1 130301Z 10007KT 03/M05 A3032 RMK A01 T00281048  RH  057%=      5-min Rain = 0
KTH1 130302Z 10008KT 03/M05 A3032 RMK A01 T00281048  RH  057%=      5-min Rain = 0
KTH1 130303Z 10007KT 03/M05 A3032 RMK A01 T00281048  RH  057%=      5-min Rain = 0
KTH1 130304Z 10007KT 03/M05 A3032 RMK A01 T00281048  RH  057%=      5-min Rain = 0
KTH1 130305Z 10006KT 03/M05 A3032 RMK A01 T00281048  RH  057%=      5-min Rain = 0
KTH1 130306Z 10007KT 03/M05 A3032 RMK A01 T00271049  RH  057%=      5-min Rain = 0
KTH1 130307Z 10008KT 03/M05 A3032 RMK A01 T00271048  RH  058%=      5-min Rain = 0
KTH1 130308Z 10007KT 03/M05 A3032 RMK A01 T00271048  RH  058%=      5-min Rain = 0
KTH1 130309Z 10006KT 03/M05 A3033 RMK A01 T00271048  RH  058%=      5-min Rain = 0
KTH1 130310Z 10006KT 03/M05 A3033 RMK A01 T00271049  RH  058%=      5-min Rain = 0
KTH1 130311Z 10006KT 03/M05 A3033 RMK A01 T00261049  RH  058%=      5-min Rain = 0
KTH1 130312Z 10007KT 03/M05 A3033 RMK A01 T00261048  RH  058%=      5-min Rain = 0
KTH1 130313Z 10006KT 03/M05 A3033 RMK A01 T00261048  RH  058%=      5-min Rain = 0
KTH1 130314Z 10006KT 03/M05 A3033 RMK A01 T00261048  RH  058%=      5-min Rain = 0
KTH1 130315Z 10007KT 03/M05 A3033 RMK A01 T00261048  RH  058%=      5-min Rain = 0
KTH1 130316Z 10007KT 03/M05 A3033 RMK A01 T00261048  RH  058%=      5-min Rain = 0
KTH1 130317Z 10007KT 03/M05 A3033 RMK A01 T00261048  RH  058%=      5-min Rain = 0
KTH1 130318Z 10007KT 03/M05 A3033 RMK A01 T00251048  RH  059%=      5-min Rain = 0
KTH1 130319Z 10008KT 03/M05 A3033 RMK A01 T00251048  RH  059%=      5-min Rain = 0
KTH1 130320Z 10008KT 03/M05 A3033 RMK A01 T00251048  RH  059%=      5-min Rain = 0
KTH1 130321Z 10008KT 03/M05 A3033 RMK A01 T00251047  RH  059%=      5-min Rain = 0
KTH1 130322Z 10008KT 03/M05 A3033 RMK A01 T00251047  RH  059%=      5-min Rain = 0
KTH1 130323Z 11008KT 03/M05 A3033 RMK A01 T00251047  RH  059%=      5-min Rain = 0
KTH1 130324Z 10008KT 03/M05 A3033 RMK A01 T00251047  RH  059%=      5-min Rain = 0
KTH1 130325Z 10008KT 03/M05 A3033 RMK A01 T00251046  RH  059%=      5-min Rain = 0
KTH1 130326Z 10009KT 03/M05 A3033 RMK A01 T00251046  RH  059%=      5-min Rain = 0
KTH1 130327Z 10008KT 03/M05 A3033 RMK A01 T00251046  RH  060%=      5-min Rain = 0
KTH1 130328Z 10008KT 03/M05 A3033 RMK A01 T00251045  RH  060%=      5-min Rain = 0
KTH1 130329Z 10008KT 03/M05 A3033 RMK A01 T00251045  RH  060%=      5-min Rain = 0
KTH1 130330Z 10008KT 03/M05 A3033 RMK A01 T00251045  RH  060%=      5-min Rain = 0
KTH1 130331Z 10008KT 03/M05 A3033 RMK A01 T00251045  RH  060%=      5-min Rain = 0
KTH1 130332Z 10007KT 03/M04 A3033 RMK A01 T00251044  RH  060%=      5-min Rain = 0
KTH1 130333Z 10008KT 03/M05 A3033 RMK A01 T00251045  RH  060%=      5-min Rain = 0
KTH1 130334Z 10008KT 03/M05 A3033 RMK A01 T00251045  RH  060%=      5-min Rain = 0
KTH1 130335Z 10008KT 03/M04 A3033 RMK A01 T00251044  RH  060%=      5-min Rain = 0
KTH1 130336Z 10008KT 03/M04 A3033 RMK A01 T00251044  RH  060%=      5-min Rain = 0
KTH1 130337Z 10009KT 03/M04 A3033 RMK A01 T00251044  RH  060%=      5-min Rain = 0
KTH1 130338Z 10009KT 03/M04 A3033 RMK A01 T00251043  RH  060%=      5-min Rain = 0
KTH1 130339Z 11009KT 03/M04 A3033 RMK A01 T00261043  RH  060%=      5-min Rain = 0
KTH1 130340Z 10009KT 03/M04 A3033 RMK A01 T00261043  RH  060%=      5-min Rain = 0
KTH1 130341Z 10008KT 03/M04 A3033 RMK A01 T00261043  RH  060%=      5-min Rain = 0
KTH1 130342Z 10009KT 03/M04 A3033 RMK A01 T00261043  RH  060%=      5-min Rain = 0
KTH1 130343Z 10008KT 03/M04 A3033 RMK A01 T00251043  RH  061%=      5-min Rain = 0
KTH1 130344Z 10008KT 03/M04 A3034 RMK A01 T00251043  RH  061%=      5-min Rain = 0
KTH1 130345Z 11007KT 03/M04 A3034 RMK A01 T00251043  RH  061%=      5-min Rain = 0
KTH1 130346Z 10006KT 02/M04 A3034 RMK A01 T00241044  RH  061%=      5-min Rain = 0
KTH1 130347Z 10008KT 02/M04 A3034 RMK A01 T00241044  RH  061%=      5-min Rain = 0
KTH1 130348Z 10007KT 02/M04 A3034 RMK A01 T00231044  RH  061%=      5-min Rain = 0
KTH1 130349Z 10008KT 02/M04 A3034 RMK A01 T00231044  RH  061%=      5-min Rain = 0
KTH1 130350Z 10009KT 02/M04 A3034 RMK A01 T00231043  RH  061%=      5-min Rain = 0
KTH1 130351Z 10009KT 02/M04 A3034 RMK A01 T00231043  RH  061%=      5-min Rain = 0
KTH1 130352Z 10007KT 02/M04 A3034 RMK A01 T00231044  RH  061%=      5-min Rain = 0
KTH1 130353Z 10008KT 02/M04 A3034 RMK A01 T00231044  RH  061%=      5-min Rain = 0
KTH1 130354Z 10009KT 02/M04 A3034 RMK A01 T00231044  RH  061%=      5-min Rain = 0
KTH1 130355Z 10009KT 02/M04 A3034 RMK A01 T00231044  RH  062%=      5-min Rain = 0
KTH1 130356Z 10009KT 02/M04 A3033 RMK A01 T00221044  RH  062%=      5-min Rain = 0
KTH1 130357Z 10008KT 02/M04 A3033 RMK A01 T00221044  RH  062%=      5-min Rain = 0
KTH1 130358Z 10010KT 02/M04 A3033 RMK A01 T00221044  RH  062%=      5-min Rain = 0
KTH1 130359Z 10008KT 02/M04 A3033 RMK A01 T00221043  RH  062%=      5-min Rain = 0
KTH1 130400Z 10009KT 02/M04 A3033 RMK A01 T00221044  RH  062%=      5-min Rain = 0
KTH1 130401Z 10008KT 02/M04 A3033 RMK A01 T00221043  RH  062%=      5-min Rain = 0
KTH1 130402Z 10008KT 02/M04 A3033 RMK A01 T00211044  RH  062%=      5-min Rain = 0
KTH1 130403Z 10008KT 02/M04 A3033 RMK A01 T00201044  RH  062%=      5-min Rain = 0
KTH1 130404Z 10008KT 02/M04 A3033 RMK A01 T00201043  RH  063%=      5-min Rain = 0
KTH1 130405Z 11008KT 02/M04 A3033 RMK A01 T00201044  RH  063%=      5-min Rain = 0
KTH1 130406Z 10007KT 02/M04 A3033 RMK A01 T00201044  RH  063%=      5-min Rain = 0
KTH1 130407Z 10007KT 02/M04 A3033 RMK A01 T00191044  RH  063%=      5-min Rain = 0
KTH1 130408Z 10008KT 02/M04 A3033 RMK A01 T00191044  RH  063%=      5-min Rain = 0
KTH1 130409Z 11008KT 02/M04 A3033 RMK A01 T00191043  RH  063%=      5-min Rain = 0
KTH1 130410Z 10007KT 02/M04 A3033 RMK A01 T00191043  RH  063%=      5-min Rain = 0
KTH1 130411Z 10007KT 02/M04 A3034 RMK A01 T00191043  RH  063%=      5-min Rain = 0
KTH1 130412Z 11007KT 02/M04 A3034 RMK A01 T00191043  RH  063%=      5-min Rain = 0
KTH1 130413Z 11007KT 02/M04 A3034 RMK A01 T00191043  RH  064%=      5-min Rain = 0
KTH1 130414Z 11007KT 02/M04 A3034 RMK A01 T00181043  RH  064%=      5-min Rain = 0
KTH1 130415Z 11007KT 02/M04 A3034 RMK A01 T00181043  RH  064%=      5-min Rain = 0
KTH1 130416Z 10006KT 02/M04 A3034 RMK A01 T00181042  RH  064%=      5-min Rain = 0
KTH1 130417Z 10007KT 02/M04 A3034 RMK A01 T00181043  RH  064%=      5-min Rain = 0
KTH1 130418Z 10007KT 02/M04 A3034 RMK A01 T00181043  RH  064%=      5-min Rain = 0
KTH1 130419Z 10007KT 02/M04 A3034 RMK A01 T00181043  RH  064%=      5-min Rain = 0
KTH1 130420Z 10006KT 02/M04 A3034 RMK A01 T00181043  RH  064%=      5-min Rain = 0
KTH1 130421Z 10006KT 02/M04 A3034 RMK A01 T00171043  RH  064%=      5-min Rain = 0
KTH1 130422Z 10006KT 02/M04 A3034 RMK A01 T00171043  RH  064%=      5-min Rain = 0
KTH1 130423Z 10006KT 02/M04 A3034 RMK A01 T00171043  RH  064%=      5-min Rain = 0
KTH1 130424Z 11006KT 02/M04 A3034 RMK A01 T00171043  RH  064%=      5-min Rain = 0
KTH1 130425Z 10006KT 02/M04 A3034 RMK A01 T00161043  RH  065%=      5-min Rain = 0
KTH1 130426Z 10006KT 02/M04 A3034 RMK A01 T00161043  RH  065%=      5-min Rain = 0
KTH1 130427Z 10006KT 02/M04 A3034 RMK A01 T00151043  RH  065%=      5-min Rain = 0
KTH1 130428Z 10007KT 02/M04 A3034 RMK A01 T00151043  RH  065%=      5-min Rain = 0
KTH1 130429Z 11007KT 02/M04 A3034 RMK A01 T00151043  RH  065%=      5-min Rain = 0
KTH1 130430Z 11007KT 02/M04 A3034 RMK A01 T00151043  RH  065%=      5-min Rain = 0
KTH1 130431Z 11005KT 02/M04 A3035 RMK A01 T00151043  RH  065%=      5-min Rain = 0
KTH1 130432Z 11006KT 02/M04 A3035 RMK A01 T00151043  RH  065%=      5-min Rain = 0
KTH1 130433Z 11006KT 02/M04 A3035 RMK A01 T00151043  RH  066%=      5-min Rain = 0
KTH1 130434Z 10006KT 02/M04 A3035 RMK A01 T00151043  RH  066%=      5-min Rain = 0
KTH1 130435Z 11006KT 02/M04 A3035 RMK A01 T00151042  RH  066%=      5-min Rain = 0
KTH1 130436Z 11006KT 02/M04 A3035 RMK A01 T00151042  RH  066%=      5-min Rain = 0
KTH1 130437Z 10007KT 02/M04 A3035 RMK A01 T00151042  RH  066%=      5-min Rain = 0
KTH1 130438Z 10006KT 02/M04 A3035 RMK A01 T00151042  RH  066%=      5-min Rain = 0
KTH1 130439Z 11006KT 02/M04 A3035 RMK A01 T00151042  RH  066%=      5-min Rain = 0
KTH1 130440Z 11006KT 01/M04 A3035 RMK A01 T00141043  RH  066%=      5-min Rain = 0
KTH1 130441Z 10007KT 01/M04 A3035 RMK A01 T00141043  RH  066%=      5-min Rain = 0
KTH1 130442Z 10007KT 01/M04 A3035 RMK A01 T00141042  RH  066%=      5-min Rain = 0
KTH1 130443Z 11007KT 01/M04 A3035 RMK A01 T00141042  RH  066%=      5-min Rain = 0
KTH1 130444Z 11007KT 01/M04 A3035 RMK A01 T00141042  RH  066%=      5-min Rain = 0
KTH1 130445Z 11006KT 01/M04 A3035 RMK A01 T00141042  RH  066%=      5-min Rain = 0
KTH1 130446Z 11007KT 01/M04 A3035 RMK A01 T00141042  RH  066%=      5-min Rain = 0
KTH1 130447Z 10007KT 01/M04 A3035 RMK A01 T00131042  RH  067%=      5-min Rain = 0
KTH1 130448Z 11007KT 01/M04 A3034 RMK A01 T00131042  RH  067%=      5-min Rain = 0
KTH1 130449Z 10006KT 01/M04 A3034 RMK A01 T00131042  RH  067%=      5-min Rain = 0
KTH1 130450Z 10006KT 01/M04 A3034 RMK A01 T00131042  RH  067%=      5-min Rain = 0
KTH1 130451Z 10006KT 01/M04 A3034 RMK A01 T00131042  RH  067%=      5-min Rain = 0
KTH1 130452Z 10007KT 01/M04 A3034 RMK A01 T00131043  RH  067%=      5-min Rain = 0
KTH1 130453Z 10006KT 01/M04 A3035 RMK A01 T00121043  RH  067%=      5-min Rain = 0
KTH1 130454Z 10005KT 01/M04 A3035 RMK A01 T00121042  RH  067%=      5-min Rain = 0
KTH1 130455Z 10005KT 01/M04 A3035 RMK A01 T00111043  RH  067%=      5-min Rain = 0
KTH1 130456Z 11006KT 01/M04 A3035 RMK A01 T00111042  RH  067%=      5-min Rain = 0
KTH1 130457Z 10005KT 01/M04 A3035 RMK A01 T00121042  RH  067%=      5-min Rain = 0
KTH1 130458Z 11006KT 01/M04 A3035 RMK A01 T00111042  RH  067%=      5-min Rain = 0
KTH1 130459Z 10006KT 01/M04 A3035 RMK A01 T00111042  RH  068%=      5-min Rain = 0
KTH1 130500Z 10006KT 01/M04 A3035 RMK A01 T00111042  RH  067%=      5-min Rain = 0
KTH1 130501Z 10005KT 01/M04 A3035 RMK A01 T00111043  RH  067%=      5-min Rain = 0
KTH1 130502Z 10006KT 01/M04 A3035 RMK A01 T00101043  RH  068%=      5-min Rain = 0
KTH1 130503Z 11004KT 01/M04 A3035 RMK A01 T00101043  RH  068%=      5-min Rain = 0
KTH1 130504Z 11005KT 01/M04 A3035 RMK A01 T00101042  RH  068%=      5-min Rain = 0
KTH1 130505Z 11004KT 01/M04 A3035 RMK A01 T00101042  RH  068%=      5-min Rain = 0
KTH1 130506Z 10004KT 01/M04 A3035 RMK A01 T00101042  RH  068%=      5-min Rain = 0
KTH1 130507Z 11004KT 01/M04 A3035 RMK A01 T00101043  RH  068%=      5-min Rain = 0
KTH1 130508Z 10005KT 01/M04 A3035 RMK A01 T00101043  RH  068%=      5-min Rain = 0
KTH1 130509Z 10005KT 01/M04 A3035 RMK A01 T00101042  RH  068%=      5-min Rain = 0
KTH1 130510Z 10005KT 01/M04 A3035 RMK A01 T00091043  RH  068%=      5-min Rain = 0
KTH1 130511Z 11005KT 01/M04 A3035 RMK A01 T00091043  RH  068%=      5-min Rain = 0
KTH1 130512Z 11007KT 01/M04 A3035 RMK A01 T00091043  RH  068%=      5-min Rain = 0
KTH1 130513Z 11006KT 01/M04 A3035 RMK A01 T00091042  RH  068%=      5-min Rain = 0
KTH1 130514Z 11008KT 01/M04 A3035 RMK A01 T00091042  RH  068%=      5-min Rain = 0
KTH1 130515Z 11007KT 01/M04 A3035 RMK A01 T00091042  RH  068%=      5-min Rain = 0
KTH1 130516Z 11007KT 01/M04 A3035 RMK A01 T00101042  RH  068%=      5-min Rain = 0
KTH1 130517Z 11007KT 01/M04 A3035 RMK A01 T00101042  RH  068%=      5-min Rain = 0
KTH1 130518Z 11007KT 01/M04 A3035 RMK A01 T00101042  RH  069%=      5-min Rain = 0
KTH1 130519Z 11006KT 01/M04 A3035 RMK A01 T00101042  RH  069%=      5-min Rain = 0
KTH1 130520Z 11007KT 01/M04 A3035 RMK A01 T00101042  RH  069%=      5-min Rain = 0
KTH1 130521Z 11006KT 01/M04 A3035 RMK A01 T00101042  RH  069%=      5-min Rain = 0
KTH1 130522Z 11006KT 01/M04 A3036 RMK A01 T00091042  RH  069%=      5-min Rain = 0
KTH1 130523Z 11006KT 01/M04 A3036 RMK A01 T00091042  RH  069%=      5-min Rain = 0
KTH1 130524Z 11006KT 01/M04 A3036 RMK A01 T00091041  RH  069%=      5-min Rain = 0
KTH1 130525Z 10006KT 01/M04 A3036 RMK A01 T00101041  RH  069%=      5-min Rain = 0
KTH1 130526Z 11005KT 01/M04 A3036 RMK A01 T00101042  RH  069%=      5-min Rain = 0
KTH1 130527Z 11006KT 01/M04 A3036 RMK A01 T00101041  RH  069%=      5-min Rain = 0
KTH1 130528Z 11005KT 01/M04 A3036 RMK A01 T00101041  RH  069%=      5-min Rain = 0
KTH1 130529Z 12005KT 01/M04 A3036 RMK A01 T00101041  RH  069%=      5-min Rain = 0
KTH1 130530Z 11005KT 01/M04 A3036 RMK A01 T00101041  RH  069%=      5-min Rain = 0
KTH1 130531Z 11005KT 01/M04 A3036 RMK A01 T00091042  RH  069%=      5-min Rain = 0
KTH1 130532Z 11005KT 01/M04 A3036 RMK A01 T00091042  RH  069%=      5-min Rain = 0
KTH1 130533Z 11005KT 01/M04 A3036 RMK A01 T00081042  RH  069%=      5-min Rain = 0
KTH1 130534Z 11005KT 01/M04 A3036 RMK A01 T00081042  RH  069%=      5-min Rain = 0
KTH1 130535Z 11006KT 01/M04 A3036 RMK A01 T00081042  RH  069%=      5-min Rain = 0
KTH1 130536Z 11006KT 01/M04 A3036 RMK A01 T00071042  RH  069%=      5-min Rain = 0
KTH1 130537Z 12007KT 01/M04 A3036 RMK A01 T00071042  RH  069%=      5-min Rain = 0
KTH1 130538Z 11007KT 01/M04 A3036 RMK A01 T00071042  RH  070%=      5-min Rain = 0
KTH1 130539Z 12006KT 01/M04 A3036 RMK A01 T00071042  RH  070%=      5-min Rain = 0
KTH1 130540Z 11006KT 01/M04 A3036 RMK A01 T00071042  RH  070%=      5-min Rain = 0
KTH1 130541Z 12006KT 01/M04 A3036 RMK A01 T00071042  RH  070%=      5-min Rain = 0
KTH1 130542Z 11006KT 01/M04 A3036 RMK A01 T00061042  RH  070%=      5-min Rain = 0
KTH1 130543Z 12007KT 01/M04 A3036 RMK A01 T00061042  RH  070%=      5-min Rain = 0
KTH1 130544Z 11006KT 01/M04 A3036 RMK A01 T00071042  RH  070%=      5-min Rain = 0
KTH1 130545Z 12006KT 01/M04 A3036 RMK A01 T00061043  RH  070%=      5-min Rain = 0
KTH1 130546Z 12006KT 01/M04 A3036 RMK A01 T00061043  RH  070%=      5-min Rain = 0
KTH1 130547Z 12007KT 01/M04 A3036 RMK A01 T00051043  RH  070%=      5-min Rain = 0
KTH1 130548Z 12006KT 01/M04 A3036 RMK A01 T00051043  RH  070%=      5-min Rain = 0
KTH1 130549Z 12006KT 00/M04 A3036 RMK A01 T00041044  RH  070%=      5-min Rain = 0
KTH1 130550Z 12005KT 00/M04 A3036 RMK A01 T00041044  RH  070%=      5-min Rain = 0
KTH1 130551Z 13005KT 00/M04 A3036 RMK A01 T00031044  RH  070%=      5-min Rain = 0
KTH1 130552Z 12005KT 00/M04 A3036 RMK A01 T00031044  RH  070%=      5-min Rain = 0
KTH1 130553Z 12005KT 00/M05 A3036 RMK A01 T00031045  RH  071%=      5-min Rain = 0
KTH1 130554Z 12006KT 00/M05 A3036 RMK A01 T00021045  RH  071%=      5-min Rain = 0
KTH1 130555Z 12006KT 00/M05 A3036 RMK A01 T00021045  RH  071%=      5-min Rain = 0
KTH1 130556Z 12006KT 00/M05 A3036 RMK A01 T00011045  RH  071%=      5-min Rain = 0
KTH1 130557Z 12006KT 00/M05 A3036 RMK A01 T00011045  RH  071%=      5-min Rain = 0
KTH1 130558Z 11006KT 00/M05 A3036 RMK A01 T00011045  RH  071%=      5-min Rain = 0
KTH1 130559Z 11006KT 00/M04 A3036 RMK A01 T00011044  RH  072%=      5-min Rain = 0

Page generated in 0.197 seconds.